<gpx creator="Cyclotour.ca" version="1.1" xmlns:gpsies="http://www.gpsies.com/GPX/1/0" xmlns:xsi="http://www.w3.org/2001/XMLSchema-instance" xmlns="http://www.topografix.com/GPX/1/1" xsi:schemaLocation="http://www.topografix.com/GPX/1/1 http://www.topografix.com/GPX/1/1/gpx.xsd http://www.gpsies.com/GPX/1/0 http://www.gpsies.com/gpsies.xsd">
<trk>
<name>jour 3  Les deux rives de la rivière Chaudière, de St-Bernard à St-Joseph de Beauce</name>
<trkseg>
<trkpt lat="46.519260000" lon="-71.124870000">
<ele>0</ele>
<time>2026-09-04T06:23:07Z</time>
</trkpt>
<trkpt lat="46.519390000" lon="-71.125040000">
<ele>0</ele>
<time>2026-09-04T06:23:08Z</time>
</trkpt>
<trkpt lat="46.519390000" lon="-71.125040000">
<ele>0</ele>
<time>2026-09-04T06:23:09Z</time>
</trkpt>
<trkpt lat="46.516760000" lon="-71.121560000">
<ele>0</ele>
<time>2026-09-04T06:23:10Z</time>
</trkpt>
<trkpt lat="46.515560000" lon="-71.119980000">
<ele>0</ele>
<time>2026-09-04T06:23:11Z</time>
</trkpt>
<trkpt lat="46.515300000" lon="-71.119620000">
<ele>0</ele>
<time>2026-09-04T06:23:12Z</time>
</trkpt>
<trkpt lat="46.514620000" lon="-71.118730000">
<ele>0</ele>
<time>2026-09-04T06:23:13Z</time>
</trkpt>
<trkpt lat="46.513680000" lon="-71.117520000">
<ele>0</ele>
<time>2026-09-04T06:23:14Z</time>
</trkpt>
<trkpt lat="46.510180000" lon="-71.112500000">
<ele>0</ele>
<time>2026-09-04T06:23:15Z</time>
</trkpt>
<trkpt lat="46.509500000" lon="-71.111660000">
<ele>0</ele>
<time>2026-09-04T06:23:16Z</time>
</trkpt>
<trkpt lat="46.509090000" lon="-71.111220000">
<ele>0</ele>
<time>2026-09-04T06:23:17Z</time>
</trkpt>
<trkpt lat="46.508130000" lon="-71.110280000">
<ele>0</ele>
<time>2026-09-04T06:23:18Z</time>
</trkpt>
<trkpt lat="46.507250000" lon="-71.109420000">
<ele>0</ele>
<time>2026-09-04T06:23:19Z</time>
</trkpt>
<trkpt lat="46.506960000" lon="-71.109090000">
<ele>0</ele>
<time>2026-09-04T06:23:20Z</time>
</trkpt>
<trkpt lat="46.505960000" lon="-71.107740000">
<ele>0</ele>
<time>2026-09-04T06:23:21Z</time>
</trkpt>
<trkpt lat="46.504870000" lon="-71.106280000">
<ele>0</ele>
<time>2026-09-04T06:23:22Z</time>
</trkpt>
<trkpt lat="46.504870000" lon="-71.106280000">
<ele>0</ele>
<time>2026-09-04T06:23:23Z</time>
</trkpt>
<trkpt lat="46.503560000" lon="-71.104500000">
<ele>0</ele>
<time>2026-09-04T06:23:24Z</time>
</trkpt>
<trkpt lat="46.502250000" lon="-71.102700000">
<ele>0</ele>
<time>2026-09-04T06:23:25Z</time>
</trkpt>
<trkpt lat="46.501810000" lon="-71.102080000">
<ele>0</ele>
<time>2026-09-04T06:23:26Z</time>
</trkpt>
<trkpt lat="46.501350000" lon="-71.101280000">
<ele>0</ele>
<time>2026-09-04T06:23:27Z</time>
</trkpt>
<trkpt lat="46.501150000" lon="-71.100880000">
<ele>0</ele>
<time>2026-09-04T06:23:28Z</time>
</trkpt>
<trkpt lat="46.500950000" lon="-71.100430000">
<ele>0</ele>
<time>2026-09-04T06:23:29Z</time>
</trkpt>
<trkpt lat="46.500590000" lon="-71.099500000">
<ele>0</ele>
<time>2026-09-04T06:23:30Z</time>
</trkpt>
<trkpt lat="46.500360000" lon="-71.098750000">
<ele>0</ele>
<time>2026-09-04T06:23:31Z</time>
</trkpt>
<trkpt lat="46.500200000" lon="-71.098100000">
<ele>0</ele>
<time>2026-09-04T06:23:32Z</time>
</trkpt>
<trkpt lat="46.499940000" lon="-71.096800000">
<ele>0</ele>
<time>2026-09-04T06:23:33Z</time>
</trkpt>
<trkpt lat="46.499660000" lon="-71.095020000">
<ele>0</ele>
<time>2026-09-04T06:23:34Z</time>
</trkpt>
<trkpt lat="46.499450000" lon="-71.093750000">
<ele>0</ele>
<time>2026-09-04T06:23:35Z</time>
</trkpt>
<trkpt lat="46.499320000" lon="-71.093110000">
<ele>0</ele>
<time>2026-09-04T06:23:36Z</time>
</trkpt>
<trkpt lat="46.499060000" lon="-71.092070000">
<ele>0</ele>
<time>2026-09-04T06:23:37Z</time>
</trkpt>
<trkpt lat="46.498770000" lon="-71.091050000">
<ele>0</ele>
<time>2026-09-04T06:23:38Z</time>
</trkpt>
<trkpt lat="46.498420000" lon="-71.089810000">
<ele>0</ele>
<time>2026-09-04T06:23:39Z</time>
</trkpt>
<trkpt lat="46.498040000" lon="-71.088680000">
<ele>0</ele>
<time>2026-09-04T06:23:40Z</time>
</trkpt>
<trkpt lat="46.497570000" lon="-71.087280000">
<ele>0</ele>
<time>2026-09-04T06:23:41Z</time>
</trkpt>
<trkpt lat="46.497400000" lon="-71.086770000">
<ele>0</ele>
<time>2026-09-04T06:23:42Z</time>
</trkpt>
<trkpt lat="46.497280000" lon="-71.086320000">
<ele>0</ele>
<time>2026-09-04T06:23:43Z</time>
</trkpt>
<trkpt lat="46.497180000" lon="-71.085760000">
<ele>0</ele>
<time>2026-09-04T06:23:44Z</time>
</trkpt>
<trkpt lat="46.497140000" lon="-71.085280000">
<ele>0</ele>
<time>2026-09-04T06:23:45Z</time>
</trkpt>
<trkpt lat="46.497140000" lon="-71.084900000">
<ele>0</ele>
<time>2026-09-04T06:23:46Z</time>
</trkpt>
<trkpt lat="46.497170000" lon="-71.084260000">
<ele>0</ele>
<time>2026-09-04T06:23:47Z</time>
</trkpt>
<trkpt lat="46.497190000" lon="-71.084000000">
<ele>0</ele>
<time>2026-09-04T06:23:48Z</time>
</trkpt>
<trkpt lat="46.497440000" lon="-71.080120000">
<ele>0</ele>
<time>2026-09-04T06:23:49Z</time>
</trkpt>
<trkpt lat="46.497480000" lon="-71.079520000">
<ele>0</ele>
<time>2026-09-04T06:23:50Z</time>
</trkpt>
<trkpt lat="46.497460000" lon="-71.079450000">
<ele>0</ele>
<time>2026-09-04T06:23:51Z</time>
</trkpt>
<trkpt lat="46.497460000" lon="-71.078980000">
<ele>0</ele>
<time>2026-09-04T06:23:52Z</time>
</trkpt>
<trkpt lat="46.497570000" lon="-71.077250000">
<ele>0</ele>
<time>2026-09-04T06:23:53Z</time>
</trkpt>
<trkpt lat="46.497570000" lon="-71.077250000">
<ele>0</ele>
<time>2026-09-04T06:23:54Z</time>
</trkpt>
<trkpt lat="46.497570000" lon="-71.077160000">
<ele>0</ele>
<time>2026-09-04T06:23:55Z</time>
</trkpt>
<trkpt lat="46.497550000" lon="-71.076780000">
<ele>0</ele>
<time>2026-09-04T06:23:56Z</time>
</trkpt>
<trkpt lat="46.497450000" lon="-71.076770000">
<ele>0</ele>
<time>2026-09-04T06:23:57Z</time>
</trkpt>
<trkpt lat="46.497370000" lon="-71.076750000">
<ele>0</ele>
<time>2026-09-04T06:23:58Z</time>
</trkpt>
<trkpt lat="46.497370000" lon="-71.076750000">
<ele>0</ele>
<time>2026-09-04T06:23:59Z</time>
</trkpt>
<trkpt lat="46.496380000" lon="-71.076490000">
<ele>0</ele>
<time>2026-09-04T06:24:00Z</time>
</trkpt>
<trkpt lat="46.493800000" lon="-71.075700000">
<ele>0</ele>
<time>2026-09-04T06:24:01Z</time>
</trkpt>
<trkpt lat="46.491710000" lon="-71.075010000">
<ele>0</ele>
<time>2026-09-04T06:24:02Z</time>
</trkpt>
<trkpt lat="46.491180000" lon="-71.074840000">
<ele>0</ele>
<time>2026-09-04T06:24:03Z</time>
</trkpt>
<trkpt lat="46.490270000" lon="-71.074590000">
<ele>0</ele>
<time>2026-09-04T06:24:04Z</time>
</trkpt>
<trkpt lat="46.489910000" lon="-71.074550000">
<ele>0</ele>
<time>2026-09-04T06:24:05Z</time>
</trkpt>
<trkpt lat="46.489460000" lon="-71.074520000">
<ele>0</ele>
<time>2026-09-04T06:24:06Z</time>
</trkpt>
<trkpt lat="46.488300000" lon="-71.074600000">
<ele>0</ele>
<time>2026-09-04T06:24:07Z</time>
</trkpt>
<trkpt lat="46.487580000" lon="-71.074630000">
<ele>0</ele>
<time>2026-09-04T06:24:08Z</time>
</trkpt>
<trkpt lat="46.487310000" lon="-71.074630000">
<ele>0</ele>
<time>2026-09-04T06:24:09Z</time>
</trkpt>
<trkpt lat="46.486860000" lon="-71.074580000">
<ele>0</ele>
<time>2026-09-04T06:24:10Z</time>
</trkpt>
<trkpt lat="46.486130000" lon="-71.074460000">
<ele>0</ele>
<time>2026-09-04T06:24:11Z</time>
</trkpt>
<trkpt lat="46.484880000" lon="-71.074250000">
<ele>0</ele>
<time>2026-09-04T06:24:12Z</time>
</trkpt>
<trkpt lat="46.484360000" lon="-71.074130000">
<ele>0</ele>
<time>2026-09-04T06:24:13Z</time>
</trkpt>
<trkpt lat="46.484200000" lon="-71.074070000">
<ele>0</ele>
<time>2026-09-04T06:24:14Z</time>
</trkpt>
<trkpt lat="46.483850000" lon="-71.073890000">
<ele>0</ele>
<time>2026-09-04T06:24:15Z</time>
</trkpt>
<trkpt lat="46.483430000" lon="-71.073650000">
<ele>0</ele>
<time>2026-09-04T06:24:16Z</time>
</trkpt>
<trkpt lat="46.482970000" lon="-71.073330000">
<ele>0</ele>
<time>2026-09-04T06:24:17Z</time>
</trkpt>
<trkpt lat="46.481400000" lon="-71.072250000">
<ele>0</ele>
<time>2026-09-04T06:24:18Z</time>
</trkpt>
<trkpt lat="46.480360000" lon="-71.071520000">
<ele>0</ele>
<time>2026-09-04T06:24:19Z</time>
</trkpt>
<trkpt lat="46.479310000" lon="-71.070710000">
<ele>0</ele>
<time>2026-09-04T06:24:20Z</time>
</trkpt>
<trkpt lat="46.478680000" lon="-71.070140000">
<ele>0</ele>
<time>2026-09-04T06:24:21Z</time>
</trkpt>
<trkpt lat="46.477570000" lon="-71.069140000">
<ele>0</ele>
<time>2026-09-04T06:24:22Z</time>
</trkpt>
<trkpt lat="46.477160000" lon="-71.068810000">
<ele>0</ele>
<time>2026-09-04T06:24:23Z</time>
</trkpt>
<trkpt lat="46.474760000" lon="-71.066820000">
<ele>0</ele>
<time>2026-09-04T06:24:24Z</time>
</trkpt>
<trkpt lat="46.474120000" lon="-71.066310000">
<ele>0</ele>
<time>2026-09-04T06:24:25Z</time>
</trkpt>
<trkpt lat="46.473650000" lon="-71.065980000">
<ele>0</ele>
<time>2026-09-04T06:24:26Z</time>
</trkpt>
<trkpt lat="46.473370000" lon="-71.065810000">
<ele>0</ele>
<time>2026-09-04T06:24:27Z</time>
</trkpt>
<trkpt lat="46.472990000" lon="-71.065610000">
<ele>0</ele>
<time>2026-09-04T06:24:28Z</time>
</trkpt>
<trkpt lat="46.472000000" lon="-71.065220000">
<ele>0</ele>
<time>2026-09-04T06:24:29Z</time>
</trkpt>
<trkpt lat="46.469380000" lon="-71.064190000">
<ele>0</ele>
<time>2026-09-04T06:24:30Z</time>
</trkpt>
<trkpt lat="46.469010000" lon="-71.064040000">
<ele>0</ele>
<time>2026-09-04T06:24:31Z</time>
</trkpt>
<trkpt lat="46.468650000" lon="-71.063830000">
<ele>0</ele>
<time>2026-09-04T06:24:32Z</time>
</trkpt>
<trkpt lat="46.468270000" lon="-71.063510000">
<ele>0</ele>
<time>2026-09-04T06:24:33Z</time>
</trkpt>
<trkpt lat="46.467930000" lon="-71.063100000">
<ele>0</ele>
<time>2026-09-04T06:24:34Z</time>
</trkpt>
<trkpt lat="46.467730000" lon="-71.062770000">
<ele>0</ele>
<time>2026-09-04T06:24:35Z</time>
</trkpt>
<trkpt lat="46.467360000" lon="-71.062020000">
<ele>0</ele>
<time>2026-09-04T06:24:36Z</time>
</trkpt>
<trkpt lat="46.467170000" lon="-71.061640000">
<ele>0</ele>
<time>2026-09-04T06:24:37Z</time>
</trkpt>
<trkpt lat="46.466950000" lon="-71.061250000">
<ele>0</ele>
<time>2026-09-04T06:24:38Z</time>
</trkpt>
<trkpt lat="46.466720000" lon="-71.060940000">
<ele>0</ele>
<time>2026-09-04T06:24:39Z</time>
</trkpt>
<trkpt lat="46.466110000" lon="-71.060350000">
<ele>0</ele>
<time>2026-09-04T06:24:40Z</time>
</trkpt>
<trkpt lat="46.465780000" lon="-71.060110000">
<ele>0</ele>
<time>2026-09-04T06:24:41Z</time>
</trkpt>
<trkpt lat="46.465430000" lon="-71.059950000">
<ele>0</ele>
<time>2026-09-04T06:24:42Z</time>
</trkpt>
<trkpt lat="46.464790000" lon="-71.059710000">
<ele>0</ele>
<time>2026-09-04T06:24:43Z</time>
</trkpt>
<trkpt lat="46.464790000" lon="-71.059710000">
<ele>0</ele>
<time>2026-09-04T06:24:44Z</time>
</trkpt>
<trkpt lat="46.463490000" lon="-71.059250000">
<ele>0</ele>
<time>2026-09-04T06:24:45Z</time>
</trkpt>
<trkpt lat="46.463200000" lon="-71.059110000">
<ele>0</ele>
<time>2026-09-04T06:24:46Z</time>
</trkpt>
<trkpt lat="46.462270000" lon="-71.058510000">
<ele>0</ele>
<time>2026-09-04T06:24:47Z</time>
</trkpt>
<trkpt lat="46.461050000" lon="-71.057690000">
<ele>0</ele>
<time>2026-09-04T06:24:48Z</time>
</trkpt>
<trkpt lat="46.460750000" lon="-71.057480000">
<ele>0</ele>
<time>2026-09-04T06:24:49Z</time>
</trkpt>
<trkpt lat="46.457500000" lon="-71.055320000">
<ele>0</ele>
<time>2026-09-04T06:24:50Z</time>
</trkpt>
<trkpt lat="46.456860000" lon="-71.054880000">
<ele>0</ele>
<time>2026-09-04T06:24:51Z</time>
</trkpt>
<trkpt lat="46.456050000" lon="-71.054250000">
<ele>0</ele>
<time>2026-09-04T06:24:52Z</time>
</trkpt>
<trkpt lat="46.455510000" lon="-71.053770000">
<ele>0</ele>
<time>2026-09-04T06:24:53Z</time>
</trkpt>
<trkpt lat="46.454930000" lon="-71.053200000">
<ele>0</ele>
<time>2026-09-04T06:24:54Z</time>
</trkpt>
<trkpt lat="46.454510000" lon="-71.052790000">
<ele>0</ele>
<time>2026-09-04T06:24:55Z</time>
</trkpt>
<trkpt lat="46.453640000" lon="-71.051780000">
<ele>0</ele>
<time>2026-09-04T06:24:56Z</time>
</trkpt>
<trkpt lat="46.453040000" lon="-71.051100000">
<ele>0</ele>
<time>2026-09-04T06:24:57Z</time>
</trkpt>
<trkpt lat="46.449700000" lon="-71.047290000">
<ele>0</ele>
<time>2026-09-04T06:24:58Z</time>
</trkpt>
<trkpt lat="46.448350000" lon="-71.045810000">
<ele>0</ele>
<time>2026-09-04T06:24:59Z</time>
</trkpt>
<trkpt lat="46.447050000" lon="-71.044430000">
<ele>0</ele>
<time>2026-09-04T06:25:00Z</time>
</trkpt>
<trkpt lat="46.444870000" lon="-71.042120000">
<ele>0</ele>
<time>2026-09-04T06:25:01Z</time>
</trkpt>
<trkpt lat="46.444020000" lon="-71.041230000">
<ele>0</ele>
<time>2026-09-04T06:25:02Z</time>
</trkpt>
<trkpt lat="46.443650000" lon="-71.040830000">
<ele>0</ele>
<time>2026-09-04T06:25:03Z</time>
</trkpt>
<trkpt lat="46.442970000" lon="-71.040040000">
<ele>0</ele>
<time>2026-09-04T06:25:04Z</time>
</trkpt>
<trkpt lat="46.441660000" lon="-71.038340000">
<ele>0</ele>
<time>2026-09-04T06:25:05Z</time>
</trkpt>
<trkpt lat="46.440940000" lon="-71.037390000">
<ele>0</ele>
<time>2026-09-04T06:25:06Z</time>
</trkpt>
<trkpt lat="46.440310000" lon="-71.036600000">
<ele>0</ele>
<time>2026-09-04T06:25:07Z</time>
</trkpt>
<trkpt lat="46.440100000" lon="-71.036350000">
<ele>0</ele>
<time>2026-09-04T06:25:08Z</time>
</trkpt>
<trkpt lat="46.439730000" lon="-71.036010000">
<ele>0</ele>
<time>2026-09-04T06:25:09Z</time>
</trkpt>
<trkpt lat="46.439420000" lon="-71.035730000">
<ele>0</ele>
<time>2026-09-04T06:25:10Z</time>
</trkpt>
<trkpt lat="46.438790000" lon="-71.035220000">
<ele>0</ele>
<time>2026-09-04T06:25:11Z</time>
</trkpt>
<trkpt lat="46.438210000" lon="-71.034750000">
<ele>0</ele>
<time>2026-09-04T06:25:12Z</time>
</trkpt>
<trkpt lat="46.437720000" lon="-71.034260000">
<ele>0</ele>
<time>2026-09-04T06:25:13Z</time>
</trkpt>
<trkpt lat="46.437090000" lon="-71.033460000">
<ele>0</ele>
<time>2026-09-04T06:25:14Z</time>
</trkpt>
<trkpt lat="46.436170000" lon="-71.032250000">
<ele>0</ele>
<time>2026-09-04T06:25:15Z</time>
</trkpt>
<trkpt lat="46.435430000" lon="-71.031290000">
<ele>0</ele>
<time>2026-09-04T06:25:16Z</time>
</trkpt>
<trkpt lat="46.434690000" lon="-71.030230000">
<ele>0</ele>
<time>2026-09-04T06:25:17Z</time>
</trkpt>
<trkpt lat="46.434180000" lon="-71.029400000">
<ele>0</ele>
<time>2026-09-04T06:25:18Z</time>
</trkpt>
<trkpt lat="46.433830000" lon="-71.028850000">
<ele>0</ele>
<time>2026-09-04T06:25:19Z</time>
</trkpt>
<trkpt lat="46.432960000" lon="-71.027450000">
<ele>0</ele>
<time>2026-09-04T06:25:20Z</time>
</trkpt>
<trkpt lat="46.432480000" lon="-71.026560000">
<ele>0</ele>
<time>2026-09-04T06:25:21Z</time>
</trkpt>
<trkpt lat="46.432040000" lon="-71.025740000">
<ele>0</ele>
<time>2026-09-04T06:25:22Z</time>
</trkpt>
<trkpt lat="46.431870000" lon="-71.025480000">
<ele>0</ele>
<time>2026-09-04T06:25:23Z</time>
</trkpt>
<trkpt lat="46.431740000" lon="-71.025330000">
<ele>0</ele>
<time>2026-09-04T06:25:24Z</time>
</trkpt>
<trkpt lat="46.431230000" lon="-71.024750000">
<ele>0</ele>
<time>2026-09-04T06:25:25Z</time>
</trkpt>
<trkpt lat="46.431230000" lon="-71.024750000">
<ele>0</ele>
<time>2026-09-04T06:25:26Z</time>
</trkpt>
<trkpt lat="46.430380000" lon="-71.023740000">
<ele>0</ele>
<time>2026-09-04T06:25:27Z</time>
</trkpt>
<trkpt lat="46.429690000" lon="-71.022900000">
<ele>0</ele>
<time>2026-09-04T06:25:28Z</time>
</trkpt>
<trkpt lat="46.428840000" lon="-71.021840000">
<ele>0</ele>
<time>2026-09-04T06:25:29Z</time>
</trkpt>
<trkpt lat="46.427720000" lon="-71.020400000">
<ele>0</ele>
<time>2026-09-04T06:25:30Z</time>
</trkpt>
<trkpt lat="46.426740000" lon="-71.019080000">
<ele>0</ele>
<time>2026-09-04T06:25:31Z</time>
</trkpt>
<trkpt lat="46.425990000" lon="-71.018070000">
<ele>0</ele>
<time>2026-09-04T06:25:32Z</time>
</trkpt>
<trkpt lat="46.425520000" lon="-71.017360000">
<ele>0</ele>
<time>2026-09-04T06:25:33Z</time>
</trkpt>
<trkpt lat="46.424210000" lon="-71.015580000">
<ele>0</ele>
<time>2026-09-04T06:25:34Z</time>
</trkpt>
<trkpt lat="46.423650000" lon="-71.014820000">
<ele>0</ele>
<time>2026-09-04T06:25:35Z</time>
</trkpt>
<trkpt lat="46.422480000" lon="-71.013200000">
<ele>0</ele>
<time>2026-09-04T06:25:36Z</time>
</trkpt>
<trkpt lat="46.422070000" lon="-71.012610000">
<ele>0</ele>
<time>2026-09-04T06:25:37Z</time>
</trkpt>
<trkpt lat="46.421840000" lon="-71.012240000">
<ele>0</ele>
<time>2026-09-04T06:25:38Z</time>
</trkpt>
<trkpt lat="46.421040000" lon="-71.010920000">
<ele>0</ele>
<time>2026-09-04T06:25:39Z</time>
</trkpt>
<trkpt lat="46.420410000" lon="-71.009980000">
<ele>0</ele>
<time>2026-09-04T06:25:40Z</time>
</trkpt>
<trkpt lat="46.420120000" lon="-71.009590000">
<ele>0</ele>
<time>2026-09-04T06:25:41Z</time>
</trkpt>
<trkpt lat="46.419480000" lon="-71.008830000">
<ele>0</ele>
<time>2026-09-04T06:25:42Z</time>
</trkpt>
<trkpt lat="46.418710000" lon="-71.007980000">
<ele>0</ele>
<time>2026-09-04T06:25:43Z</time>
</trkpt>
<trkpt lat="46.418110000" lon="-71.007230000">
<ele>0</ele>
<time>2026-09-04T06:25:44Z</time>
</trkpt>
<trkpt lat="46.417310000" lon="-71.006410000">
<ele>0</ele>
<time>2026-09-04T06:25:45Z</time>
</trkpt>
<trkpt lat="46.416480000" lon="-71.005480000">
<ele>0</ele>
<time>2026-09-04T06:25:46Z</time>
</trkpt>
<trkpt lat="46.415600000" lon="-71.004520000">
<ele>0</ele>
<time>2026-09-04T06:25:47Z</time>
</trkpt>
<trkpt lat="46.415430000" lon="-71.004400000">
<ele>0</ele>
<time>2026-09-04T06:25:48Z</time>
</trkpt>
<trkpt lat="46.415300000" lon="-71.004340000">
<ele>0</ele>
<time>2026-09-04T06:25:49Z</time>
</trkpt>
<trkpt lat="46.415160000" lon="-71.004310000">
<ele>0</ele>
<time>2026-09-04T06:25:50Z</time>
</trkpt>
<trkpt lat="46.414910000" lon="-71.004310000">
<ele>0</ele>
<time>2026-09-04T06:25:51Z</time>
</trkpt>
<trkpt lat="46.414680000" lon="-71.004310000">
<ele>0</ele>
<time>2026-09-04T06:25:52Z</time>
</trkpt>
<trkpt lat="46.414380000" lon="-71.004250000">
<ele>0</ele>
<time>2026-09-04T06:25:53Z</time>
</trkpt>
<trkpt lat="46.414200000" lon="-71.004180000">
<ele>0</ele>
<time>2026-09-04T06:25:54Z</time>
</trkpt>
<trkpt lat="46.413860000" lon="-71.004010000">
<ele>0</ele>
<time>2026-09-04T06:25:55Z</time>
</trkpt>
<trkpt lat="46.413570000" lon="-71.003780000">
<ele>0</ele>
<time>2026-09-04T06:25:56Z</time>
</trkpt>
<trkpt lat="46.413200000" lon="-71.003400000">
<ele>0</ele>
<time>2026-09-04T06:25:57Z</time>
</trkpt>
<trkpt lat="46.412740000" lon="-71.002890000">
<ele>0</ele>
<time>2026-09-04T06:25:58Z</time>
</trkpt>
<trkpt lat="46.412330000" lon="-71.002400000">
<ele>0</ele>
<time>2026-09-04T06:25:59Z</time>
</trkpt>
<trkpt lat="46.411730000" lon="-71.001580000">
<ele>0</ele>
<time>2026-09-04T06:26:00Z</time>
</trkpt>
<trkpt lat="46.411460000" lon="-71.001170000">
<ele>0</ele>
<time>2026-09-04T06:26:01Z</time>
</trkpt>
<trkpt lat="46.411080000" lon="-71.000450000">
<ele>0</ele>
<time>2026-09-04T06:26:02Z</time>
</trkpt>
<trkpt lat="46.410660000" lon="-70.999480000">
<ele>0</ele>
<time>2026-09-04T06:26:03Z</time>
</trkpt>
<trkpt lat="46.410310000" lon="-70.998550000">
<ele>0</ele>
<time>2026-09-04T06:26:04Z</time>
</trkpt>
<trkpt lat="46.410020000" lon="-70.997680000">
<ele>0</ele>
<time>2026-09-04T06:26:05Z</time>
</trkpt>
<trkpt lat="46.409890000" lon="-70.997170000">
<ele>0</ele>
<time>2026-09-04T06:26:06Z</time>
</trkpt>
<trkpt lat="46.409800000" lon="-70.996690000">
<ele>0</ele>
<time>2026-09-04T06:26:07Z</time>
</trkpt>
<trkpt lat="46.409740000" lon="-70.996220000">
<ele>0</ele>
<time>2026-09-04T06:26:08Z</time>
</trkpt>
<trkpt lat="46.409560000" lon="-70.994830000">
<ele>0</ele>
<time>2026-09-04T06:26:09Z</time>
</trkpt>
<trkpt lat="46.409360000" lon="-70.993570000">
<ele>0</ele>
<time>2026-09-04T06:26:10Z</time>
</trkpt>
<trkpt lat="46.409260000" lon="-70.993140000">
<ele>0</ele>
<time>2026-09-04T06:26:11Z</time>
</trkpt>
<trkpt lat="46.408920000" lon="-70.991860000">
<ele>0</ele>
<time>2026-09-04T06:26:12Z</time>
</trkpt>
<trkpt lat="46.408470000" lon="-70.990340000">
<ele>0</ele>
<time>2026-09-04T06:26:13Z</time>
</trkpt>
<trkpt lat="46.407890000" lon="-70.988350000">
<ele>0</ele>
<time>2026-09-04T06:26:14Z</time>
</trkpt>
<trkpt lat="46.407640000" lon="-70.987470000">
<ele>0</ele>
<time>2026-09-04T06:26:15Z</time>
</trkpt>
<trkpt lat="46.407470000" lon="-70.986730000">
<ele>0</ele>
<time>2026-09-04T06:26:16Z</time>
</trkpt>
<trkpt lat="46.407300000" lon="-70.985750000">
<ele>0</ele>
<time>2026-09-04T06:26:17Z</time>
</trkpt>
<trkpt lat="46.407030000" lon="-70.984100000">
<ele>0</ele>
<time>2026-09-04T06:26:18Z</time>
</trkpt>
<trkpt lat="46.406950000" lon="-70.983740000">
<ele>0</ele>
<time>2026-09-04T06:26:19Z</time>
</trkpt>
<trkpt lat="46.406740000" lon="-70.983030000">
<ele>0</ele>
<time>2026-09-04T06:26:20Z</time>
</trkpt>
<trkpt lat="46.406510000" lon="-70.982460000">
<ele>0</ele>
<time>2026-09-04T06:26:21Z</time>
</trkpt>
<trkpt lat="46.406290000" lon="-70.982020000">
<ele>0</ele>
<time>2026-09-04T06:26:22Z</time>
</trkpt>
<trkpt lat="46.405800000" lon="-70.981240000">
<ele>0</ele>
<time>2026-09-04T06:26:23Z</time>
</trkpt>
<trkpt lat="46.405100000" lon="-70.980150000">
<ele>0</ele>
<time>2026-09-04T06:26:24Z</time>
</trkpt>
<trkpt lat="46.404800000" lon="-70.979720000">
<ele>0</ele>
<time>2026-09-04T06:26:25Z</time>
</trkpt>
<trkpt lat="46.404430000" lon="-70.979280000">
<ele>0</ele>
<time>2026-09-04T06:26:26Z</time>
</trkpt>
<trkpt lat="46.404080000" lon="-70.978940000">
<ele>0</ele>
<time>2026-09-04T06:26:27Z</time>
</trkpt>
<trkpt lat="46.403920000" lon="-70.978810000">
<ele>0</ele>
<time>2026-09-04T06:26:28Z</time>
</trkpt>
<trkpt lat="46.403510000" lon="-70.978480000">
<ele>0</ele>
<time>2026-09-04T06:26:29Z</time>
</trkpt>
<trkpt lat="46.403190000" lon="-70.978130000">
<ele>0</ele>
<time>2026-09-04T06:26:30Z</time>
</trkpt>
<trkpt lat="46.402940000" lon="-70.977780000">
<ele>0</ele>
<time>2026-09-04T06:26:31Z</time>
</trkpt>
<trkpt lat="46.402720000" lon="-70.977360000">
<ele>0</ele>
<time>2026-09-04T06:26:32Z</time>
</trkpt>
<trkpt lat="46.402220000" lon="-70.976210000">
<ele>0</ele>
<time>2026-09-04T06:26:33Z</time>
</trkpt>
<trkpt lat="46.401440000" lon="-70.974500000">
<ele>0</ele>
<time>2026-09-04T06:26:34Z</time>
</trkpt>
<trkpt lat="46.401090000" lon="-70.973910000">
<ele>0</ele>
<time>2026-09-04T06:26:35Z</time>
</trkpt>
<trkpt lat="46.399290000" lon="-70.971410000">
<ele>0</ele>
<time>2026-09-04T06:26:36Z</time>
</trkpt>
<trkpt lat="46.397940000" lon="-70.969560000">
<ele>0</ele>
<time>2026-09-04T06:26:37Z</time>
</trkpt>
<trkpt lat="46.397410000" lon="-70.968860000">
<ele>0</ele>
<time>2026-09-04T06:26:38Z</time>
</trkpt>
<trkpt lat="46.396500000" lon="-70.967550000">
<ele>0</ele>
<time>2026-09-04T06:26:39Z</time>
</trkpt>
<trkpt lat="46.396240000" lon="-70.967210000">
<ele>0</ele>
<time>2026-09-04T06:26:40Z</time>
</trkpt>
<trkpt lat="46.396000000" lon="-70.966940000">
<ele>0</ele>
<time>2026-09-04T06:26:41Z</time>
</trkpt>
<trkpt lat="46.395690000" lon="-70.966660000">
<ele>0</ele>
<time>2026-09-04T06:26:42Z</time>
</trkpt>
<trkpt lat="46.395380000" lon="-70.966410000">
<ele>0</ele>
<time>2026-09-04T06:26:43Z</time>
</trkpt>
<trkpt lat="46.394770000" lon="-70.965950000">
<ele>0</ele>
<time>2026-09-04T06:26:44Z</time>
</trkpt>
<trkpt lat="46.394630000" lon="-70.965810000">
<ele>0</ele>
<time>2026-09-04T06:26:45Z</time>
</trkpt>
<trkpt lat="46.394310000" lon="-70.965470000">
<ele>0</ele>
<time>2026-09-04T06:26:46Z</time>
</trkpt>
<trkpt lat="46.393170000" lon="-70.964240000">
<ele>0</ele>
<time>2026-09-04T06:26:47Z</time>
</trkpt>
<trkpt lat="46.392820000" lon="-70.963870000">
<ele>0</ele>
<time>2026-09-04T06:26:48Z</time>
</trkpt>
<trkpt lat="46.392440000" lon="-70.963530000">
<ele>0</ele>
<time>2026-09-04T06:26:49Z</time>
</trkpt>
<trkpt lat="46.391800000" lon="-70.963040000">
<ele>0</ele>
<time>2026-09-04T06:26:50Z</time>
</trkpt>
<trkpt lat="46.391510000" lon="-70.962810000">
<ele>0</ele>
<time>2026-09-04T06:26:51Z</time>
</trkpt>
<trkpt lat="46.391340000" lon="-70.962650000">
<ele>0</ele>
<time>2026-09-04T06:26:52Z</time>
</trkpt>
<trkpt lat="46.391050000" lon="-70.962290000">
<ele>0</ele>
<time>2026-09-04T06:26:53Z</time>
</trkpt>
<trkpt lat="46.390920000" lon="-70.962110000">
<ele>0</ele>
<time>2026-09-04T06:26:54Z</time>
</trkpt>
<trkpt lat="46.390710000" lon="-70.961720000">
<ele>0</ele>
<time>2026-09-04T06:26:55Z</time>
</trkpt>
<trkpt lat="46.390590000" lon="-70.961520000">
<ele>0</ele>
<time>2026-09-04T06:26:56Z</time>
</trkpt>
<trkpt lat="46.390040000" lon="-70.960530000">
<ele>0</ele>
<time>2026-09-04T06:26:57Z</time>
</trkpt>
<trkpt lat="46.389660000" lon="-70.959830000">
<ele>0</ele>
<time>2026-09-04T06:26:58Z</time>
</trkpt>
<trkpt lat="46.388880000" lon="-70.958420000">
<ele>0</ele>
<time>2026-09-04T06:26:59Z</time>
</trkpt>
<trkpt lat="46.388250000" lon="-70.957260000">
<ele>0</ele>
<time>2026-09-04T06:27:00Z</time>
</trkpt>
<trkpt lat="46.388170000" lon="-70.957120000">
<ele>0</ele>
<time>2026-09-04T06:27:01Z</time>
</trkpt>
<trkpt lat="46.387800000" lon="-70.956630000">
<ele>0</ele>
<time>2026-09-04T06:27:02Z</time>
</trkpt>
<trkpt lat="46.387630000" lon="-70.956430000">
<ele>0</ele>
<time>2026-09-04T06:27:03Z</time>
</trkpt>
<trkpt lat="46.387450000" lon="-70.956280000">
<ele>0</ele>
<time>2026-09-04T06:27:04Z</time>
</trkpt>
<trkpt lat="46.387210000" lon="-70.956120000">
<ele>0</ele>
<time>2026-09-04T06:27:05Z</time>
</trkpt>
<trkpt lat="46.386910000" lon="-70.955970000">
<ele>0</ele>
<time>2026-09-04T06:27:06Z</time>
</trkpt>
<trkpt lat="46.386750000" lon="-70.955920000">
<ele>0</ele>
<time>2026-09-04T06:27:07Z</time>
</trkpt>
<trkpt lat="46.386390000" lon="-70.955830000">
<ele>0</ele>
<time>2026-09-04T06:27:08Z</time>
</trkpt>
<trkpt lat="46.386120000" lon="-70.955810000">
<ele>0</ele>
<time>2026-09-04T06:27:09Z</time>
</trkpt>
<trkpt lat="46.385710000" lon="-70.955860000">
<ele>0</ele>
<time>2026-09-04T06:27:10Z</time>
</trkpt>
<trkpt lat="46.385360000" lon="-70.955900000">
<ele>0</ele>
<time>2026-09-04T06:27:11Z</time>
</trkpt>
<trkpt lat="46.385140000" lon="-70.955900000">
<ele>0</ele>
<time>2026-09-04T06:27:12Z</time>
</trkpt>
<trkpt lat="46.384820000" lon="-70.955840000">
<ele>0</ele>
<time>2026-09-04T06:27:13Z</time>
</trkpt>
<trkpt lat="46.384640000" lon="-70.955780000">
<ele>0</ele>
<time>2026-09-04T06:27:14Z</time>
</trkpt>
<trkpt lat="46.384380000" lon="-70.955640000">
<ele>0</ele>
<time>2026-09-04T06:27:15Z</time>
</trkpt>
<trkpt lat="46.384380000" lon="-70.955640000">
<ele>0</ele>
<time>2026-09-04T06:27:16Z</time>
</trkpt>
<trkpt lat="46.384120000" lon="-70.955460000">
<ele>0</ele>
<time>2026-09-04T06:27:17Z</time>
</trkpt>
<trkpt lat="46.383970000" lon="-70.955280000">
<ele>0</ele>
<time>2026-09-04T06:27:18Z</time>
</trkpt>
<trkpt lat="46.383830000" lon="-70.955030000">
<ele>0</ele>
<time>2026-09-04T06:27:19Z</time>
</trkpt>
<trkpt lat="46.383770000" lon="-70.954820000">
<ele>0</ele>
<time>2026-09-04T06:27:20Z</time>
</trkpt>
<trkpt lat="46.383720000" lon="-70.954570000">
<ele>0</ele>
<time>2026-09-04T06:27:21Z</time>
</trkpt>
<trkpt lat="46.383700000" lon="-70.953960000">
<ele>0</ele>
<time>2026-09-04T06:27:22Z</time>
</trkpt>
<trkpt lat="46.383640000" lon="-70.953410000">
<ele>0</ele>
<time>2026-09-04T06:27:23Z</time>
</trkpt>
<trkpt lat="46.383530000" lon="-70.953010000">
<ele>0</ele>
<time>2026-09-04T06:27:24Z</time>
</trkpt>
<trkpt lat="46.383440000" lon="-70.952770000">
<ele>0</ele>
<time>2026-09-04T06:27:25Z</time>
</trkpt>
<trkpt lat="46.383270000" lon="-70.952470000">
<ele>0</ele>
<time>2026-09-04T06:27:26Z</time>
</trkpt>
<trkpt lat="46.383110000" lon="-70.952110000">
<ele>0</ele>
<time>2026-09-04T06:27:27Z</time>
</trkpt>
<trkpt lat="46.383020000" lon="-70.951840000">
<ele>0</ele>
<time>2026-09-04T06:27:28Z</time>
</trkpt>
<trkpt lat="46.382900000" lon="-70.951310000">
<ele>0</ele>
<time>2026-09-04T06:27:29Z</time>
</trkpt>
<trkpt lat="46.382860000" lon="-70.950950000">
<ele>0</ele>
<time>2026-09-04T06:27:30Z</time>
</trkpt>
<trkpt lat="46.382820000" lon="-70.950140000">
<ele>0</ele>
<time>2026-09-04T06:27:31Z</time>
</trkpt>
<trkpt lat="46.382780000" lon="-70.949360000">
<ele>0</ele>
<time>2026-09-04T06:27:32Z</time>
</trkpt>
<trkpt lat="46.382770000" lon="-70.948750000">
<ele>0</ele>
<time>2026-09-04T06:27:33Z</time>
</trkpt>
<trkpt lat="46.382670000" lon="-70.947710000">
<ele>0</ele>
<time>2026-09-04T06:27:34Z</time>
</trkpt>
<trkpt lat="46.382610000" lon="-70.947320000">
<ele>0</ele>
<time>2026-09-04T06:27:35Z</time>
</trkpt>
<trkpt lat="46.382470000" lon="-70.946620000">
<ele>0</ele>
<time>2026-09-04T06:27:36Z</time>
</trkpt>
<trkpt lat="46.382250000" lon="-70.945930000">
<ele>0</ele>
<time>2026-09-04T06:27:37Z</time>
</trkpt>
<trkpt lat="46.381920000" lon="-70.945120000">
<ele>0</ele>
<time>2026-09-04T06:27:38Z</time>
</trkpt>
<trkpt lat="46.381630000" lon="-70.944460000">
<ele>0</ele>
<time>2026-09-04T06:27:39Z</time>
</trkpt>
<trkpt lat="46.381280000" lon="-70.943710000">
<ele>0</ele>
<time>2026-09-04T06:27:40Z</time>
</trkpt>
<trkpt lat="46.380960000" lon="-70.943070000">
<ele>0</ele>
<time>2026-09-04T06:27:41Z</time>
</trkpt>
<trkpt lat="46.380450000" lon="-70.942160000">
<ele>0</ele>
<time>2026-09-04T06:27:42Z</time>
</trkpt>
<trkpt lat="46.379200000" lon="-70.939990000">
<ele>0</ele>
<time>2026-09-04T06:27:43Z</time>
</trkpt>
<trkpt lat="46.378430000" lon="-70.938880000">
<ele>0</ele>
<time>2026-09-04T06:27:44Z</time>
</trkpt>
<trkpt lat="46.377390000" lon="-70.937430000">
<ele>0</ele>
<time>2026-09-04T06:27:45Z</time>
</trkpt>
<trkpt lat="46.376270000" lon="-70.935920000">
<ele>0</ele>
<time>2026-09-04T06:27:46Z</time>
</trkpt>
<trkpt lat="46.375600000" lon="-70.935080000">
<ele>0</ele>
<time>2026-09-04T06:27:47Z</time>
</trkpt>
<trkpt lat="46.374950000" lon="-70.934200000">
<ele>0</ele>
<time>2026-09-04T06:27:48Z</time>
</trkpt>
<trkpt lat="46.374370000" lon="-70.933400000">
<ele>0</ele>
<time>2026-09-04T06:27:49Z</time>
</trkpt>
<trkpt lat="46.373440000" lon="-70.932080000">
<ele>0</ele>
<time>2026-09-04T06:27:50Z</time>
</trkpt>
<trkpt lat="46.372950000" lon="-70.931330000">
<ele>0</ele>
<time>2026-09-04T06:27:51Z</time>
</trkpt>
<trkpt lat="46.372760000" lon="-70.931040000">
<ele>0</ele>
<time>2026-09-04T06:27:52Z</time>
</trkpt>
<trkpt lat="46.372690000" lon="-70.930970000">
<ele>0</ele>
<time>2026-09-04T06:27:53Z</time>
</trkpt>
<trkpt lat="46.372590000" lon="-70.930800000">
<ele>0</ele>
<time>2026-09-04T06:27:54Z</time>
</trkpt>
<trkpt lat="46.372520000" lon="-70.930610000">
<ele>0</ele>
<time>2026-09-04T06:27:55Z</time>
</trkpt>
<trkpt lat="46.372400000" lon="-70.930430000">
<ele>0</ele>
<time>2026-09-04T06:27:56Z</time>
</trkpt>
<trkpt lat="46.372120000" lon="-70.929870000">
<ele>0</ele>
<time>2026-09-04T06:27:57Z</time>
</trkpt>
<trkpt lat="46.371890000" lon="-70.929290000">
<ele>0</ele>
<time>2026-09-04T06:27:58Z</time>
</trkpt>
<trkpt lat="46.371780000" lon="-70.928990000">
<ele>0</ele>
<time>2026-09-04T06:27:59Z</time>
</trkpt>
<trkpt lat="46.371600000" lon="-70.928680000">
<ele>0</ele>
<time>2026-09-04T06:28:00Z</time>
</trkpt>
<trkpt lat="46.370600000" lon="-70.927220000">
<ele>0</ele>
<time>2026-09-04T06:28:01Z</time>
</trkpt>
<trkpt lat="46.369950000" lon="-70.926260000">
<ele>0</ele>
<time>2026-09-04T06:28:02Z</time>
</trkpt>
<trkpt lat="46.369950000" lon="-70.926260000">
<ele>0</ele>
<time>2026-09-04T06:28:03Z</time>
</trkpt>
<trkpt lat="46.369160000" lon="-70.925130000">
<ele>0</ele>
<time>2026-09-04T06:28:04Z</time>
</trkpt>
<trkpt lat="46.368600000" lon="-70.924420000">
<ele>0</ele>
<time>2026-09-04T06:28:05Z</time>
</trkpt>
<trkpt lat="46.368440000" lon="-70.924290000">
<ele>0</ele>
<time>2026-09-04T06:28:06Z</time>
</trkpt>
<trkpt lat="46.368180000" lon="-70.924150000">
<ele>0</ele>
<time>2026-09-04T06:28:07Z</time>
</trkpt>
<trkpt lat="46.368050000" lon="-70.924120000">
<ele>0</ele>
<time>2026-09-04T06:28:08Z</time>
</trkpt>
<trkpt lat="46.367790000" lon="-70.924130000">
<ele>0</ele>
<time>2026-09-04T06:28:09Z</time>
</trkpt>
<trkpt lat="46.367400000" lon="-70.924310000">
<ele>0</ele>
<time>2026-09-04T06:28:10Z</time>
</trkpt>
<trkpt lat="46.364870000" lon="-70.925680000">
<ele>0</ele>
<time>2026-09-04T06:28:11Z</time>
</trkpt>
<trkpt lat="46.363520000" lon="-70.926400000">
<ele>0</ele>
<time>2026-09-04T06:28:12Z</time>
</trkpt>
<trkpt lat="46.363110000" lon="-70.926630000">
<ele>0</ele>
<time>2026-09-04T06:28:13Z</time>
</trkpt>
<trkpt lat="46.362480000" lon="-70.926780000">
<ele>0</ele>
<time>2026-09-04T06:28:14Z</time>
</trkpt>
<trkpt lat="46.358670000" lon="-70.927300000">
<ele>0</ele>
<time>2026-09-04T06:28:15Z</time>
</trkpt>
<trkpt lat="46.355690000" lon="-70.927730000">
<ele>0</ele>
<time>2026-09-04T06:28:16Z</time>
</trkpt>
<trkpt lat="46.353910000" lon="-70.928040000">
<ele>0</ele>
<time>2026-09-04T06:28:17Z</time>
</trkpt>
<trkpt lat="46.353560000" lon="-70.928070000">
<ele>0</ele>
<time>2026-09-04T06:28:18Z</time>
</trkpt>
<trkpt lat="46.353030000" lon="-70.927960000">
<ele>0</ele>
<time>2026-09-04T06:28:19Z</time>
</trkpt>
<trkpt lat="46.352300000" lon="-70.927840000">
<ele>0</ele>
<time>2026-09-04T06:28:20Z</time>
</trkpt>
<trkpt lat="46.350650000" lon="-70.927430000">
<ele>0</ele>
<time>2026-09-04T06:28:21Z</time>
</trkpt>
<trkpt lat="46.349510000" lon="-70.927130000">
<ele>0</ele>
<time>2026-09-04T06:28:22Z</time>
</trkpt>
<trkpt lat="46.348790000" lon="-70.927020000">
<ele>0</ele>
<time>2026-09-04T06:28:23Z</time>
</trkpt>
<trkpt lat="46.347790000" lon="-70.926960000">
<ele>0</ele>
<time>2026-09-04T06:28:24Z</time>
</trkpt>
<trkpt lat="46.345860000" lon="-70.926850000">
<ele>0</ele>
<time>2026-09-04T06:28:25Z</time>
</trkpt>
<trkpt lat="46.345180000" lon="-70.926740000">
<ele>0</ele>
<time>2026-09-04T06:28:26Z</time>
</trkpt>
<trkpt lat="46.344810000" lon="-70.926630000">
<ele>0</ele>
<time>2026-09-04T06:28:27Z</time>
</trkpt>
<trkpt lat="46.344300000" lon="-70.926420000">
<ele>0</ele>
<time>2026-09-04T06:28:28Z</time>
</trkpt>
<trkpt lat="46.343970000" lon="-70.926230000">
<ele>0</ele>
<time>2026-09-04T06:28:29Z</time>
</trkpt>
<trkpt lat="46.342610000" lon="-70.925470000">
<ele>0</ele>
<time>2026-09-04T06:28:30Z</time>
</trkpt>
<trkpt lat="46.342360000" lon="-70.925310000">
<ele>0</ele>
<time>2026-09-04T06:28:31Z</time>
</trkpt>
<trkpt lat="46.342110000" lon="-70.925200000">
<ele>0</ele>
<time>2026-09-04T06:28:32Z</time>
</trkpt>
<trkpt lat="46.341590000" lon="-70.925010000">
<ele>0</ele>
<time>2026-09-04T06:28:33Z</time>
</trkpt>
<trkpt lat="46.341240000" lon="-70.924960000">
<ele>0</ele>
<time>2026-09-04T06:28:34Z</time>
</trkpt>
<trkpt lat="46.340990000" lon="-70.924940000">
<ele>0</ele>
<time>2026-09-04T06:28:35Z</time>
</trkpt>
<trkpt lat="46.340770000" lon="-70.924950000">
<ele>0</ele>
<time>2026-09-04T06:28:36Z</time>
</trkpt>
<trkpt lat="46.340520000" lon="-70.925000000">
<ele>0</ele>
<time>2026-09-04T06:28:37Z</time>
</trkpt>
<trkpt lat="46.340340000" lon="-70.925070000">
<ele>0</ele>
<time>2026-09-04T06:28:38Z</time>
</trkpt>
<trkpt lat="46.339540000" lon="-70.925450000">
<ele>0</ele>
<time>2026-09-04T06:28:39Z</time>
</trkpt>
<trkpt lat="46.338440000" lon="-70.925910000">
<ele>0</ele>
<time>2026-09-04T06:28:40Z</time>
</trkpt>
<trkpt lat="46.338120000" lon="-70.926020000">
<ele>0</ele>
<time>2026-09-04T06:28:41Z</time>
</trkpt>
<trkpt lat="46.337990000" lon="-70.926070000">
<ele>0</ele>
<time>2026-09-04T06:28:42Z</time>
</trkpt>
<trkpt lat="46.337590000" lon="-70.926100000">
<ele>0</ele>
<time>2026-09-04T06:28:43Z</time>
</trkpt>
<trkpt lat="46.337250000" lon="-70.926050000">
<ele>0</ele>
<time>2026-09-04T06:28:44Z</time>
</trkpt>
<trkpt lat="46.336970000" lon="-70.925960000">
<ele>0</ele>
<time>2026-09-04T06:28:45Z</time>
</trkpt>
<trkpt lat="46.336650000" lon="-70.925790000">
<ele>0</ele>
<time>2026-09-04T06:28:46Z</time>
</trkpt>
<trkpt lat="46.336360000" lon="-70.925570000">
<ele>0</ele>
<time>2026-09-04T06:28:47Z</time>
</trkpt>
<trkpt lat="46.336240000" lon="-70.925440000">
<ele>0</ele>
<time>2026-09-04T06:28:48Z</time>
</trkpt>
<trkpt lat="46.335960000" lon="-70.925130000">
<ele>0</ele>
<time>2026-09-04T06:28:49Z</time>
</trkpt>
<trkpt lat="46.335810000" lon="-70.924970000">
<ele>0</ele>
<time>2026-09-04T06:28:50Z</time>
</trkpt>
<trkpt lat="46.335020000" lon="-70.923910000">
<ele>0</ele>
<time>2026-09-04T06:28:51Z</time>
</trkpt>
<trkpt lat="46.334630000" lon="-70.923370000">
<ele>0</ele>
<time>2026-09-04T06:28:52Z</time>
</trkpt>
<trkpt lat="46.333680000" lon="-70.921800000">
<ele>0</ele>
<time>2026-09-04T06:28:53Z</time>
</trkpt>
<trkpt lat="46.333490000" lon="-70.921490000">
<ele>0</ele>
<time>2026-09-04T06:28:54Z</time>
</trkpt>
<trkpt lat="46.332900000" lon="-70.920730000">
<ele>0</ele>
<time>2026-09-04T06:28:55Z</time>
</trkpt>
<trkpt lat="46.332490000" lon="-70.920230000">
<ele>0</ele>
<time>2026-09-04T06:28:56Z</time>
</trkpt>
<trkpt lat="46.331760000" lon="-70.919350000">
<ele>0</ele>
<time>2026-09-04T06:28:57Z</time>
</trkpt>
<trkpt lat="46.331510000" lon="-70.919070000">
<ele>0</ele>
<time>2026-09-04T06:28:58Z</time>
</trkpt>
<trkpt lat="46.331220000" lon="-70.918780000">
<ele>0</ele>
<time>2026-09-04T06:28:59Z</time>
</trkpt>
<trkpt lat="46.330750000" lon="-70.918380000">
<ele>0</ele>
<time>2026-09-04T06:29:00Z</time>
</trkpt>
<trkpt lat="46.330180000" lon="-70.917750000">
<ele>0</ele>
<time>2026-09-04T06:29:01Z</time>
</trkpt>
<trkpt lat="46.330050000" lon="-70.917580000">
<ele>0</ele>
<time>2026-09-04T06:29:02Z</time>
</trkpt>
<trkpt lat="46.329690000" lon="-70.916990000">
<ele>0</ele>
<time>2026-09-04T06:29:03Z</time>
</trkpt>
<trkpt lat="46.329490000" lon="-70.916560000">
<ele>0</ele>
<time>2026-09-04T06:29:04Z</time>
</trkpt>
<trkpt lat="46.329320000" lon="-70.916180000">
<ele>0</ele>
<time>2026-09-04T06:29:05Z</time>
</trkpt>
<trkpt lat="46.329070000" lon="-70.915460000">
<ele>0</ele>
<time>2026-09-04T06:29:06Z</time>
</trkpt>
<trkpt lat="46.328910000" lon="-70.915010000">
<ele>0</ele>
<time>2026-09-04T06:29:07Z</time>
</trkpt>
<trkpt lat="46.328910000" lon="-70.915010000">
<ele>0</ele>
<time>2026-09-04T06:29:08Z</time>
</trkpt>
<trkpt lat="46.328580000" lon="-70.914060000">
<ele>0</ele>
<time>2026-09-04T06:29:09Z</time>
</trkpt>
<trkpt lat="46.328410000" lon="-70.913610000">
<ele>0</ele>
<time>2026-09-04T06:29:10Z</time>
</trkpt>
<trkpt lat="46.328300000" lon="-70.913410000">
<ele>0</ele>
<time>2026-09-04T06:29:11Z</time>
</trkpt>
<trkpt lat="46.328170000" lon="-70.913220000">
<ele>0</ele>
<time>2026-09-04T06:29:12Z</time>
</trkpt>
<trkpt lat="46.327850000" lon="-70.912830000">
<ele>0</ele>
<time>2026-09-04T06:29:13Z</time>
</trkpt>
<trkpt lat="46.327200000" lon="-70.912150000">
<ele>0</ele>
<time>2026-09-04T06:29:14Z</time>
</trkpt>
<trkpt lat="46.326480000" lon="-70.911380000">
<ele>0</ele>
<time>2026-09-04T06:29:15Z</time>
</trkpt>
<trkpt lat="46.326070000" lon="-70.910960000">
<ele>0</ele>
<time>2026-09-04T06:29:16Z</time>
</trkpt>
<trkpt lat="46.325900000" lon="-70.910740000">
<ele>0</ele>
<time>2026-09-04T06:29:17Z</time>
</trkpt>
<trkpt lat="46.324820000" lon="-70.909370000">
<ele>0</ele>
<time>2026-09-04T06:29:18Z</time>
</trkpt>
<trkpt lat="46.324490000" lon="-70.909010000">
<ele>0</ele>
<time>2026-09-04T06:29:19Z</time>
</trkpt>
<trkpt lat="46.324240000" lon="-70.908750000">
<ele>0</ele>
<time>2026-09-04T06:29:20Z</time>
</trkpt>
<trkpt lat="46.323930000" lon="-70.908480000">
<ele>0</ele>
<time>2026-09-04T06:29:21Z</time>
</trkpt>
<trkpt lat="46.323620000" lon="-70.908230000">
<ele>0</ele>
<time>2026-09-04T06:29:22Z</time>
</trkpt>
<trkpt lat="46.323100000" lon="-70.907850000">
<ele>0</ele>
<time>2026-09-04T06:29:23Z</time>
</trkpt>
<trkpt lat="46.321900000" lon="-70.906970000">
<ele>0</ele>
<time>2026-09-04T06:29:24Z</time>
</trkpt>
<trkpt lat="46.320930000" lon="-70.906260000">
<ele>0</ele>
<time>2026-09-04T06:29:25Z</time>
</trkpt>
<trkpt lat="46.318950000" lon="-70.904780000">
<ele>0</ele>
<time>2026-09-04T06:29:26Z</time>
</trkpt>
<trkpt lat="46.317560000" lon="-70.903750000">
<ele>0</ele>
<time>2026-09-04T06:29:27Z</time>
</trkpt>
<trkpt lat="46.316910000" lon="-70.903300000">
<ele>0</ele>
<time>2026-09-04T06:29:28Z</time>
</trkpt>
<trkpt lat="46.316090000" lon="-70.902870000">
<ele>0</ele>
<time>2026-09-04T06:29:29Z</time>
</trkpt>
<trkpt lat="46.315030000" lon="-70.902520000">
<ele>0</ele>
<time>2026-09-04T06:29:30Z</time>
</trkpt>
<trkpt lat="46.314080000" lon="-70.902260000">
<ele>0</ele>
<time>2026-09-04T06:29:31Z</time>
</trkpt>
<trkpt lat="46.313590000" lon="-70.902150000">
<ele>0</ele>
<time>2026-09-04T06:29:32Z</time>
</trkpt>
<trkpt lat="46.313380000" lon="-70.902130000">
<ele>0</ele>
<time>2026-09-04T06:29:33Z</time>
</trkpt>
<trkpt lat="46.312900000" lon="-70.902130000">
<ele>0</ele>
<time>2026-09-04T06:29:34Z</time>
</trkpt>
<trkpt lat="46.312680000" lon="-70.902160000">
<ele>0</ele>
<time>2026-09-04T06:29:35Z</time>
</trkpt>
<trkpt lat="46.312500000" lon="-70.902200000">
<ele>0</ele>
<time>2026-09-04T06:29:36Z</time>
</trkpt>
<trkpt lat="46.311800000" lon="-70.902390000">
<ele>0</ele>
<time>2026-09-04T06:29:37Z</time>
</trkpt>
<trkpt lat="46.311660000" lon="-70.902420000">
<ele>0</ele>
<time>2026-09-04T06:29:38Z</time>
</trkpt>
<trkpt lat="46.311660000" lon="-70.902420000">
<ele>0</ele>
<time>2026-09-04T06:29:39Z</time>
</trkpt>
<trkpt lat="46.311400000" lon="-70.902420000">
<ele>0</ele>
<time>2026-09-04T06:29:40Z</time>
</trkpt>
<trkpt lat="46.311090000" lon="-70.902370000">
<ele>0</ele>
<time>2026-09-04T06:29:41Z</time>
</trkpt>
<trkpt lat="46.310820000" lon="-70.902290000">
<ele>0</ele>
<time>2026-09-04T06:29:42Z</time>
</trkpt>
<trkpt lat="46.310600000" lon="-70.902160000">
<ele>0</ele>
<time>2026-09-04T06:29:43Z</time>
</trkpt>
<trkpt lat="46.310470000" lon="-70.902050000">
<ele>0</ele>
<time>2026-09-04T06:29:44Z</time>
</trkpt>
<trkpt lat="46.310260000" lon="-70.901860000">
<ele>0</ele>
<time>2026-09-04T06:29:45Z</time>
</trkpt>
<trkpt lat="46.310120000" lon="-70.901520000">
<ele>0</ele>
<time>2026-09-04T06:29:46Z</time>
</trkpt>
<trkpt lat="46.309920000" lon="-70.901090000">
<ele>0</ele>
<time>2026-09-04T06:29:47Z</time>
</trkpt>
<trkpt lat="46.309510000" lon="-70.900230000">
<ele>0</ele>
<time>2026-09-04T06:29:48Z</time>
</trkpt>
<trkpt lat="46.308980000" lon="-70.899180000">
<ele>0</ele>
<time>2026-09-04T06:29:49Z</time>
</trkpt>
<trkpt lat="46.308710000" lon="-70.898770000">
<ele>0</ele>
<time>2026-09-04T06:29:50Z</time>
</trkpt>
<trkpt lat="46.308520000" lon="-70.898540000">
<ele>0</ele>
<time>2026-09-04T06:29:51Z</time>
</trkpt>
<trkpt lat="46.307580000" lon="-70.897620000">
<ele>0</ele>
<time>2026-09-04T06:29:52Z</time>
</trkpt>
<trkpt lat="46.306600000" lon="-70.896680000">
<ele>0</ele>
<time>2026-09-04T06:29:53Z</time>
</trkpt>
<trkpt lat="46.306420000" lon="-70.896550000">
<ele>0</ele>
<time>2026-09-04T06:29:54Z</time>
</trkpt>
<trkpt lat="46.306250000" lon="-70.896450000">
<ele>0</ele>
<time>2026-09-04T06:29:55Z</time>
</trkpt>
<trkpt lat="46.305930000" lon="-70.896280000">
<ele>0</ele>
<time>2026-09-04T06:29:56Z</time>
</trkpt>
<trkpt lat="46.305270000" lon="-70.896040000">
<ele>0</ele>
<time>2026-09-04T06:29:57Z</time>
</trkpt>
<trkpt lat="46.304890000" lon="-70.895860000">
<ele>0</ele>
<time>2026-09-04T06:29:58Z</time>
</trkpt>
<trkpt lat="46.304370000" lon="-70.895490000">
<ele>0</ele>
<time>2026-09-04T06:29:59Z</time>
</trkpt>
<trkpt lat="46.303960000" lon="-70.895090000">
<ele>0</ele>
<time>2026-09-04T06:30:00Z</time>
</trkpt>
<trkpt lat="46.303580000" lon="-70.894640000">
<ele>0</ele>
<time>2026-09-04T06:30:01Z</time>
</trkpt>
<trkpt lat="46.303180000" lon="-70.894140000">
<ele>0</ele>
<time>2026-09-04T06:30:02Z</time>
</trkpt>
<trkpt lat="46.302860000" lon="-70.893650000">
<ele>0</ele>
<time>2026-09-04T06:30:03Z</time>
</trkpt>
<trkpt lat="46.303210000" lon="-70.893100000">
<ele>0</ele>
<time>2026-09-04T06:30:04Z</time>
</trkpt>
<trkpt lat="46.303210000" lon="-70.893100000">
<ele>0</ele>
<time>2026-09-04T06:30:05Z</time>
</trkpt>
<trkpt lat="46.304960000" lon="-70.890440000">
<ele>0</ele>
<time>2026-09-04T06:30:06Z</time>
</trkpt>
<trkpt lat="46.306850000" lon="-70.887650000">
<ele>0</ele>
<time>2026-09-04T06:30:07Z</time>
</trkpt>
<trkpt lat="46.307220000" lon="-70.887090000">
<ele>0</ele>
<time>2026-09-04T06:30:08Z</time>
</trkpt>
<trkpt lat="46.307600000" lon="-70.886390000">
<ele>0</ele>
<time>2026-09-04T06:30:09Z</time>
</trkpt>
<trkpt lat="46.308370000" lon="-70.884630000">
<ele>0</ele>
<time>2026-09-04T06:30:10Z</time>
</trkpt>
<trkpt lat="46.308870000" lon="-70.883570000">
<ele>0</ele>
<time>2026-09-04T06:30:11Z</time>
</trkpt>
<trkpt lat="46.309390000" lon="-70.882770000">
<ele>0</ele>
<time>2026-09-04T06:30:12Z</time>
</trkpt>
<trkpt lat="46.309630000" lon="-70.882440000">
<ele>0</ele>
<time>2026-09-04T06:30:13Z</time>
</trkpt>
<trkpt lat="46.310050000" lon="-70.882920000">
<ele>0</ele>
<time>2026-09-04T06:30:14Z</time>
</trkpt>
<trkpt lat="46.310050000" lon="-70.882920000">
<ele>0</ele>
<time>2026-09-04T06:30:15Z</time>
</trkpt>
<trkpt lat="46.310800000" lon="-70.883750000">
<ele>0</ele>
<time>2026-09-04T06:30:16Z</time>
</trkpt>
<trkpt lat="46.311190000" lon="-70.884220000">
<ele>0</ele>
<time>2026-09-04T06:30:17Z</time>
</trkpt>
<trkpt lat="46.311500000" lon="-70.884550000">
<ele>0</ele>
<time>2026-09-04T06:30:18Z</time>
</trkpt>
<trkpt lat="46.311880000" lon="-70.884900000">
<ele>0</ele>
<time>2026-09-04T06:30:19Z</time>
</trkpt>
<trkpt lat="46.312040000" lon="-70.885020000">
<ele>0</ele>
<time>2026-09-04T06:30:20Z</time>
</trkpt>
<trkpt lat="46.312150000" lon="-70.885080000">
<ele>0</ele>
<time>2026-09-04T06:30:21Z</time>
</trkpt>
<trkpt lat="46.312450000" lon="-70.885070000">
<ele>0</ele>
<time>2026-09-04T06:30:22Z</time>
</trkpt>
<trkpt lat="46.312810000" lon="-70.885050000">
<ele>0</ele>
<time>2026-09-04T06:30:23Z</time>
</trkpt>
<trkpt lat="46.312980000" lon="-70.885200000">
<ele>0</ele>
<time>2026-09-04T06:30:24Z</time>
</trkpt>
<trkpt lat="46.313120000" lon="-70.885350000">
<ele>0</ele>
<time>2026-09-04T06:30:25Z</time>
</trkpt>
<trkpt lat="46.313520000" lon="-70.885880000">
<ele>0</ele>
<time>2026-09-04T06:30:26Z</time>
</trkpt>
<trkpt lat="46.314110000" lon="-70.886630000">
<ele>0</ele>
<time>2026-09-04T06:30:27Z</time>
</trkpt>
<trkpt lat="46.314580000" lon="-70.887120000">
<ele>0</ele>
<time>2026-09-04T06:30:28Z</time>
</trkpt>
<trkpt lat="46.316370000" lon="-70.889040000">
<ele>0</ele>
<time>2026-09-04T06:30:29Z</time>
</trkpt>
<trkpt lat="46.316300000" lon="-70.889160000">
<ele>0</ele>
<time>2026-09-04T06:30:30Z</time>
</trkpt>
<trkpt lat="46.316440000" lon="-70.889350000">
<ele>0</ele>
<time>2026-09-04T06:30:31Z</time>
</trkpt>
<trkpt lat="46.317380000" lon="-70.890400000">
<ele>0</ele>
<time>2026-09-04T06:30:32Z</time>
</trkpt>
<trkpt lat="46.318210000" lon="-70.891390000">
<ele>0</ele>
<time>2026-09-04T06:30:33Z</time>
</trkpt>
<trkpt lat="46.319010000" lon="-70.892280000">
<ele>0</ele>
<time>2026-09-04T06:30:34Z</time>
</trkpt>
<trkpt lat="46.320630000" lon="-70.894110000">
<ele>0</ele>
<time>2026-09-04T06:30:35Z</time>
</trkpt>
<trkpt lat="46.321620000" lon="-70.895250000">
<ele>0</ele>
<time>2026-09-04T06:30:36Z</time>
</trkpt>
<trkpt lat="46.322580000" lon="-70.896300000">
<ele>0</ele>
<time>2026-09-04T06:30:37Z</time>
</trkpt>
<trkpt lat="46.322890000" lon="-70.896690000">
<ele>0</ele>
<time>2026-09-04T06:30:38Z</time>
</trkpt>
<trkpt lat="46.323600000" lon="-70.897490000">
<ele>0</ele>
<time>2026-09-04T06:30:39Z</time>
</trkpt>
<trkpt lat="46.325150000" lon="-70.899260000">
<ele>0</ele>
<time>2026-09-04T06:30:40Z</time>
</trkpt>
<trkpt lat="46.326000000" lon="-70.900230000">
<ele>0</ele>
<time>2026-09-04T06:30:41Z</time>
</trkpt>
<trkpt lat="46.327280000" lon="-70.901660000">
<ele>0</ele>
<time>2026-09-04T06:30:42Z</time>
</trkpt>
<trkpt lat="46.328550000" lon="-70.903110000">
<ele>0</ele>
<time>2026-09-04T06:30:43Z</time>
</trkpt>
<trkpt lat="46.328820000" lon="-70.903420000">
<ele>0</ele>
<time>2026-09-04T06:30:44Z</time>
</trkpt>
<trkpt lat="46.329280000" lon="-70.903890000">
<ele>0</ele>
<time>2026-09-04T06:30:45Z</time>
</trkpt>
<trkpt lat="46.331120000" lon="-70.905970000">
<ele>0</ele>
<time>2026-09-04T06:30:46Z</time>
</trkpt>
<trkpt lat="46.333320000" lon="-70.908480000">
<ele>0</ele>
<time>2026-09-04T06:30:47Z</time>
</trkpt>
<trkpt lat="46.334540000" lon="-70.909900000">
<ele>0</ele>
<time>2026-09-04T06:30:48Z</time>
</trkpt>
<trkpt lat="46.336140000" lon="-70.911700000">
<ele>0</ele>
<time>2026-09-04T06:30:49Z</time>
</trkpt>
<trkpt lat="46.337180000" lon="-70.912530000">
<ele>0</ele>
<time>2026-09-04T06:30:50Z</time>
</trkpt>
<trkpt lat="46.338290000" lon="-70.913250000">
<ele>0</ele>
<time>2026-09-04T06:30:51Z</time>
</trkpt>
<trkpt lat="46.338640000" lon="-70.913380000">
<ele>0</ele>
<time>2026-09-04T06:30:52Z</time>
</trkpt>
<trkpt lat="46.339100000" lon="-70.913480000">
<ele>0</ele>
<time>2026-09-04T06:30:53Z</time>
</trkpt>
<trkpt lat="46.339310000" lon="-70.913510000">
<ele>0</ele>
<time>2026-09-04T06:30:54Z</time>
</trkpt>
<trkpt lat="46.339570000" lon="-70.913510000">
<ele>0</ele>
<time>2026-09-04T06:30:55Z</time>
</trkpt>
<trkpt lat="46.340120000" lon="-70.913450000">
<ele>0</ele>
<time>2026-09-04T06:30:56Z</time>
</trkpt>
<trkpt lat="46.340320000" lon="-70.913380000">
<ele>0</ele>
<time>2026-09-04T06:30:57Z</time>
</trkpt>
<trkpt lat="46.340840000" lon="-70.913160000">
<ele>0</ele>
<time>2026-09-04T06:30:58Z</time>
</trkpt>
<trkpt lat="46.341660000" lon="-70.912720000">
<ele>0</ele>
<time>2026-09-04T06:30:59Z</time>
</trkpt>
<trkpt lat="46.342200000" lon="-70.912470000">
<ele>0</ele>
<time>2026-09-04T06:31:00Z</time>
</trkpt>
<trkpt lat="46.342780000" lon="-70.912200000">
<ele>0</ele>
<time>2026-09-04T06:31:01Z</time>
</trkpt>
<trkpt lat="46.343240000" lon="-70.912120000">
<ele>0</ele>
<time>2026-09-04T06:31:02Z</time>
</trkpt>
<trkpt lat="46.343640000" lon="-70.912110000">
<ele>0</ele>
<time>2026-09-04T06:31:03Z</time>
</trkpt>
<trkpt lat="46.344120000" lon="-70.912210000">
<ele>0</ele>
<time>2026-09-04T06:31:04Z</time>
</trkpt>
<trkpt lat="46.344820000" lon="-70.912370000">
<ele>0</ele>
<time>2026-09-04T06:31:05Z</time>
</trkpt>
<trkpt lat="46.345180000" lon="-70.912460000">
<ele>0</ele>
<time>2026-09-04T06:31:06Z</time>
</trkpt>
<trkpt lat="46.345800000" lon="-70.912540000">
<ele>0</ele>
<time>2026-09-04T06:31:07Z</time>
</trkpt>
<trkpt lat="46.347160000" lon="-70.912490000">
<ele>0</ele>
<time>2026-09-04T06:31:08Z</time>
</trkpt>
<trkpt lat="46.348760000" lon="-70.912470000">
<ele>0</ele>
<time>2026-09-04T06:31:09Z</time>
</trkpt>
<trkpt lat="46.349810000" lon="-70.912570000">
<ele>0</ele>
<time>2026-09-04T06:31:10Z</time>
</trkpt>
<trkpt lat="46.350930000" lon="-70.912710000">
<ele>0</ele>
<time>2026-09-04T06:31:11Z</time>
</trkpt>
<trkpt lat="46.352130000" lon="-70.912730000">
<ele>0</ele>
<time>2026-09-04T06:31:12Z</time>
</trkpt>
<trkpt lat="46.353390000" lon="-70.912770000">
<ele>0</ele>
<time>2026-09-04T06:31:13Z</time>
</trkpt>
<trkpt lat="46.353640000" lon="-70.912770000">
<ele>0</ele>
<time>2026-09-04T06:31:14Z</time>
</trkpt>
<trkpt lat="46.353750000" lon="-70.912750000">
<ele>0</ele>
<time>2026-09-04T06:31:15Z</time>
</trkpt>
<trkpt lat="46.355730000" lon="-70.912730000">
<ele>0</ele>
<time>2026-09-04T06:31:16Z</time>
</trkpt>
<trkpt lat="46.356780000" lon="-70.912710000">
<ele>0</ele>
<time>2026-09-04T06:31:17Z</time>
</trkpt>
<trkpt lat="46.357980000" lon="-70.912690000">
<ele>0</ele>
<time>2026-09-04T06:31:18Z</time>
</trkpt>
<trkpt lat="46.359870000" lon="-70.912670000">
<ele>0</ele>
<time>2026-09-04T06:31:19Z</time>
</trkpt>
<trkpt lat="46.360760000" lon="-70.912770000">
<ele>0</ele>
<time>2026-09-04T06:31:20Z</time>
</trkpt>
<trkpt lat="46.362390000" lon="-70.913020000">
<ele>0</ele>
<time>2026-09-04T06:31:21Z</time>
</trkpt>
<trkpt lat="46.363220000" lon="-70.913140000">
<ele>0</ele>
<time>2026-09-04T06:31:22Z</time>
</trkpt>
<trkpt lat="46.363670000" lon="-70.913270000">
<ele>0</ele>
<time>2026-09-04T06:31:23Z</time>
</trkpt>
<trkpt lat="46.363920000" lon="-70.913350000">
<ele>0</ele>
<time>2026-09-04T06:31:24Z</time>
</trkpt>
<trkpt lat="46.364310000" lon="-70.913580000">
<ele>0</ele>
<time>2026-09-04T06:31:25Z</time>
</trkpt>
<trkpt lat="46.364660000" lon="-70.913860000">
<ele>0</ele>
<time>2026-09-04T06:31:26Z</time>
</trkpt>
<trkpt lat="46.365010000" lon="-70.914330000">
<ele>0</ele>
<time>2026-09-04T06:31:27Z</time>
</trkpt>
<trkpt lat="46.365300000" lon="-70.914930000">
<ele>0</ele>
<time>2026-09-04T06:31:28Z</time>
</trkpt>
<trkpt lat="46.365490000" lon="-70.915360000">
<ele>0</ele>
<time>2026-09-04T06:31:29Z</time>
</trkpt>
<trkpt lat="46.365680000" lon="-70.916110000">
<ele>0</ele>
<time>2026-09-04T06:31:30Z</time>
</trkpt>
<trkpt lat="46.365770000" lon="-70.916990000">
<ele>0</ele>
<time>2026-09-04T06:31:31Z</time>
</trkpt>
<trkpt lat="46.365880000" lon="-70.917630000">
<ele>0</ele>
<time>2026-09-04T06:31:32Z</time>
</trkpt>
<trkpt lat="46.365990000" lon="-70.918070000">
<ele>0</ele>
<time>2026-09-04T06:31:33Z</time>
</trkpt>
<trkpt lat="46.366220000" lon="-70.918650000">
<ele>0</ele>
<time>2026-09-04T06:31:34Z</time>
</trkpt>
<trkpt lat="46.366400000" lon="-70.918980000">
<ele>0</ele>
<time>2026-09-04T06:31:35Z</time>
</trkpt>
<trkpt lat="46.366670000" lon="-70.919340000">
<ele>0</ele>
<time>2026-09-04T06:31:36Z</time>
</trkpt>
<trkpt lat="46.366990000" lon="-70.919700000">
<ele>0</ele>
<time>2026-09-04T06:31:37Z</time>
</trkpt>
<trkpt lat="46.367120000" lon="-70.919760000">
<ele>0</ele>
<time>2026-09-04T06:31:38Z</time>
</trkpt>
<trkpt lat="46.367120000" lon="-70.919910000">
<ele>0</ele>
<time>2026-09-04T06:31:39Z</time>
</trkpt>
<trkpt lat="46.367190000" lon="-70.920270000">
<ele>0</ele>
<time>2026-09-04T06:31:40Z</time>
</trkpt>
<trkpt lat="46.367300000" lon="-70.920410000">
<ele>0</ele>
<time>2026-09-04T06:31:41Z</time>
</trkpt>
<trkpt lat="46.367780000" lon="-70.920660000">
<ele>0</ele>
<time>2026-09-04T06:31:42Z</time>
</trkpt>
<trkpt lat="46.368120000" lon="-70.920830000">
<ele>0</ele>
<time>2026-09-04T06:31:43Z</time>
</trkpt>
<trkpt lat="46.368660000" lon="-70.921100000">
<ele>0</ele>
<time>2026-09-04T06:31:44Z</time>
</trkpt>
<trkpt lat="46.369160000" lon="-70.921340000">
<ele>0</ele>
<time>2026-09-04T06:31:45Z</time>
</trkpt>
<trkpt lat="46.369470000" lon="-70.921490000">
<ele>0</ele>
<time>2026-09-04T06:31:46Z</time>
</trkpt>
<trkpt lat="46.369660000" lon="-70.921610000">
<ele>0</ele>
<time>2026-09-04T06:31:47Z</time>
</trkpt>
<trkpt lat="46.370430000" lon="-70.922110000">
<ele>0</ele>
<time>2026-09-04T06:31:48Z</time>
</trkpt>
<trkpt lat="46.370810000" lon="-70.922450000">
<ele>0</ele>
<time>2026-09-04T06:31:49Z</time>
</trkpt>
<trkpt lat="46.371190000" lon="-70.922910000">
<ele>0</ele>
<time>2026-09-04T06:31:50Z</time>
</trkpt>
<trkpt lat="46.371870000" lon="-70.923660000">
<ele>0</ele>
<time>2026-09-04T06:31:51Z</time>
</trkpt>
<trkpt lat="46.373940000" lon="-70.925940000">
<ele>0</ele>
<time>2026-09-04T06:31:52Z</time>
</trkpt>
<trkpt lat="46.375220000" lon="-70.927360000">
<ele>0</ele>
<time>2026-09-04T06:31:53Z</time>
</trkpt>
<trkpt lat="46.375450000" lon="-70.927020000">
<ele>0</ele>
<time>2026-09-04T06:31:54Z</time>
</trkpt>
<trkpt lat="46.375450000" lon="-70.927020000">
<ele>0</ele>
<time>2026-09-04T06:31:55Z</time>
</trkpt>
<trkpt lat="46.376330000" lon="-70.925720000">
<ele>0</ele>
<time>2026-09-04T06:31:56Z</time>
</trkpt>
<trkpt lat="46.376490000" lon="-70.925380000">
<ele>0</ele>
<time>2026-09-04T06:31:57Z</time>
</trkpt>
<trkpt lat="46.376570000" lon="-70.925220000">
<ele>0</ele>
<time>2026-09-04T06:31:58Z</time>
</trkpt>
<trkpt lat="46.376880000" lon="-70.925720000">
<ele>0</ele>
<time>2026-09-04T06:31:59Z</time>
</trkpt>
<trkpt lat="46.376880000" lon="-70.925720000">
<ele>0</ele>
<time>2026-09-04T06:32:00Z</time>
</trkpt>
<trkpt lat="46.377370000" lon="-70.926700000">
<ele>0</ele>
<time>2026-09-04T06:32:01Z</time>
</trkpt>
<trkpt lat="46.378230000" lon="-70.928370000">
<ele>0</ele>
<time>2026-09-04T06:32:02Z</time>
</trkpt>
<trkpt lat="46.379180000" lon="-70.930160000">
<ele>0</ele>
<time>2026-09-04T06:32:03Z</time>
</trkpt>
<trkpt lat="46.379920000" lon="-70.931420000">
<ele>0</ele>
<time>2026-09-04T06:32:04Z</time>
</trkpt>
<trkpt lat="46.380250000" lon="-70.932040000">
<ele>0</ele>
<time>2026-09-04T06:32:05Z</time>
</trkpt>
<trkpt lat="46.380700000" lon="-70.933060000">
<ele>0</ele>
<time>2026-09-04T06:32:06Z</time>
</trkpt>
<trkpt lat="46.381470000" lon="-70.935230000">
<ele>0</ele>
<time>2026-09-04T06:32:07Z</time>
</trkpt>
<trkpt lat="46.382240000" lon="-70.937520000">
<ele>0</ele>
<time>2026-09-04T06:32:08Z</time>
</trkpt>
<trkpt lat="46.382660000" lon="-70.938810000">
<ele>0</ele>
<time>2026-09-04T06:32:09Z</time>
</trkpt>
<trkpt lat="46.383480000" lon="-70.941350000">
<ele>0</ele>
<time>2026-09-04T06:32:10Z</time>
</trkpt>
<trkpt lat="46.383800000" lon="-70.942280000">
<ele>0</ele>
<time>2026-09-04T06:32:11Z</time>
</trkpt>
<trkpt lat="46.384140000" lon="-70.943490000">
<ele>0</ele>
<time>2026-09-04T06:32:12Z</time>
</trkpt>
<trkpt lat="46.384340000" lon="-70.944170000">
<ele>0</ele>
<time>2026-09-04T06:32:13Z</time>
</trkpt>
<trkpt lat="46.384590000" lon="-70.944910000">
<ele>0</ele>
<time>2026-09-04T06:32:14Z</time>
</trkpt>
<trkpt lat="46.384750000" lon="-70.945400000">
<ele>0</ele>
<time>2026-09-04T06:32:15Z</time>
</trkpt>
<trkpt lat="46.385310000" lon="-70.946720000">
<ele>0</ele>
<time>2026-09-04T06:32:16Z</time>
</trkpt>
<trkpt lat="46.385360000" lon="-70.946830000">
<ele>0</ele>
<time>2026-09-04T06:32:17Z</time>
</trkpt>
<trkpt lat="46.385540000" lon="-70.947110000">
<ele>0</ele>
<time>2026-09-04T06:32:18Z</time>
</trkpt>
<trkpt lat="46.385670000" lon="-70.947290000">
<ele>0</ele>
<time>2026-09-04T06:32:19Z</time>
</trkpt>
<trkpt lat="46.386330000" lon="-70.948170000">
<ele>0</ele>
<time>2026-09-04T06:32:20Z</time>
</trkpt>
<trkpt lat="46.386750000" lon="-70.948670000">
<ele>0</ele>
<time>2026-09-04T06:32:21Z</time>
</trkpt>
<trkpt lat="46.387170000" lon="-70.949150000">
<ele>0</ele>
<time>2026-09-04T06:32:22Z</time>
</trkpt>
<trkpt lat="46.388360000" lon="-70.950620000">
<ele>0</ele>
<time>2026-09-04T06:32:23Z</time>
</trkpt>
<trkpt lat="46.389610000" lon="-70.952050000">
<ele>0</ele>
<time>2026-09-04T06:32:24Z</time>
</trkpt>
<trkpt lat="46.390510000" lon="-70.953130000">
<ele>0</ele>
<time>2026-09-04T06:32:25Z</time>
</trkpt>
<trkpt lat="46.391220000" lon="-70.953990000">
<ele>0</ele>
<time>2026-09-04T06:32:26Z</time>
</trkpt>
<trkpt lat="46.391740000" lon="-70.954420000">
<ele>0</ele>
<time>2026-09-04T06:32:27Z</time>
</trkpt>
<trkpt lat="46.392140000" lon="-70.954730000">
<ele>0</ele>
<time>2026-09-04T06:32:28Z</time>
</trkpt>
<trkpt lat="46.392300000" lon="-70.954840000">
<ele>0</ele>
<time>2026-09-04T06:32:29Z</time>
</trkpt>
<trkpt lat="46.393340000" lon="-70.955280000">
<ele>0</ele>
<time>2026-09-04T06:32:30Z</time>
</trkpt>
<trkpt lat="46.393890000" lon="-70.955520000">
<ele>0</ele>
<time>2026-09-04T06:32:31Z</time>
</trkpt>
<trkpt lat="46.395440000" lon="-70.956330000">
<ele>0</ele>
<time>2026-09-04T06:32:32Z</time>
</trkpt>
<trkpt lat="46.397540000" lon="-70.957680000">
<ele>0</ele>
<time>2026-09-04T06:32:33Z</time>
</trkpt>
<trkpt lat="46.398030000" lon="-70.958110000">
<ele>0</ele>
<time>2026-09-04T06:32:34Z</time>
</trkpt>
<trkpt lat="46.398420000" lon="-70.958400000">
<ele>0</ele>
<time>2026-09-04T06:32:35Z</time>
</trkpt>
<trkpt lat="46.398930000" lon="-70.958800000">
<ele>0</ele>
<time>2026-09-04T06:32:36Z</time>
</trkpt>
<trkpt lat="46.399330000" lon="-70.959140000">
<ele>0</ele>
<time>2026-09-04T06:32:37Z</time>
</trkpt>
<trkpt lat="46.399750000" lon="-70.959610000">
<ele>0</ele>
<time>2026-09-04T06:32:38Z</time>
</trkpt>
<trkpt lat="46.399940000" lon="-70.959880000">
<ele>0</ele>
<time>2026-09-04T06:32:39Z</time>
</trkpt>
<trkpt lat="46.400940000" lon="-70.961350000">
<ele>0</ele>
<time>2026-09-04T06:32:40Z</time>
</trkpt>
<trkpt lat="46.401060000" lon="-70.961570000">
<ele>0</ele>
<time>2026-09-04T06:32:41Z</time>
</trkpt>
<trkpt lat="46.402680000" lon="-70.964400000">
<ele>0</ele>
<time>2026-09-04T06:32:42Z</time>
</trkpt>
<trkpt lat="46.404720000" lon="-70.968000000">
<ele>0</ele>
<time>2026-09-04T06:32:43Z</time>
</trkpt>
<trkpt lat="46.406010000" lon="-70.970190000">
<ele>0</ele>
<time>2026-09-04T06:32:44Z</time>
</trkpt>
<trkpt lat="46.407260000" lon="-70.972360000">
<ele>0</ele>
<time>2026-09-04T06:32:45Z</time>
</trkpt>
<trkpt lat="46.408700000" lon="-70.974940000">
<ele>0</ele>
<time>2026-09-04T06:32:46Z</time>
</trkpt>
<trkpt lat="46.409040000" lon="-70.975490000">
<ele>0</ele>
<time>2026-09-04T06:32:47Z</time>
</trkpt>
<trkpt lat="46.409440000" lon="-70.976300000">
<ele>0</ele>
<time>2026-09-04T06:32:48Z</time>
</trkpt>
<trkpt lat="46.409600000" lon="-70.976700000">
<ele>0</ele>
<time>2026-09-04T06:32:49Z</time>
</trkpt>
<trkpt lat="46.410270000" lon="-70.978550000">
<ele>0</ele>
<time>2026-09-04T06:32:50Z</time>
</trkpt>
<trkpt lat="46.410580000" lon="-70.979390000">
<ele>0</ele>
<time>2026-09-04T06:32:51Z</time>
</trkpt>
<trkpt lat="46.410790000" lon="-70.980030000">
<ele>0</ele>
<time>2026-09-04T06:32:52Z</time>
</trkpt>
<trkpt lat="46.411100000" lon="-70.981150000">
<ele>0</ele>
<time>2026-09-04T06:32:53Z</time>
</trkpt>
<trkpt lat="46.411530000" lon="-70.982700000">
<ele>0</ele>
<time>2026-09-04T06:32:54Z</time>
</trkpt>
<trkpt lat="46.412040000" lon="-70.984820000">
<ele>0</ele>
<time>2026-09-04T06:32:55Z</time>
</trkpt>
<trkpt lat="46.412550000" lon="-70.986770000">
<ele>0</ele>
<time>2026-09-04T06:32:56Z</time>
</trkpt>
<trkpt lat="46.412760000" lon="-70.987510000">
<ele>0</ele>
<time>2026-09-04T06:32:57Z</time>
</trkpt>
<trkpt lat="46.412890000" lon="-70.987990000">
<ele>0</ele>
<time>2026-09-04T06:32:58Z</time>
</trkpt>
<trkpt lat="46.412990000" lon="-70.988350000">
<ele>0</ele>
<time>2026-09-04T06:32:59Z</time>
</trkpt>
<trkpt lat="46.413050000" lon="-70.988460000">
<ele>0</ele>
<time>2026-09-04T06:33:00Z</time>
</trkpt>
<trkpt lat="46.413300000" lon="-70.988940000">
<ele>0</ele>
<time>2026-09-04T06:33:01Z</time>
</trkpt>
<trkpt lat="46.413660000" lon="-70.989410000">
<ele>0</ele>
<time>2026-09-04T06:33:02Z</time>
</trkpt>
<trkpt lat="46.413920000" lon="-70.989760000">
<ele>0</ele>
<time>2026-09-04T06:33:03Z</time>
</trkpt>
<trkpt lat="46.414060000" lon="-70.990040000">
<ele>0</ele>
<time>2026-09-04T06:33:04Z</time>
</trkpt>
<trkpt lat="46.414120000" lon="-70.990210000">
<ele>0</ele>
<time>2026-09-04T06:33:05Z</time>
</trkpt>
<trkpt lat="46.414190000" lon="-70.990300000">
<ele>0</ele>
<time>2026-09-04T06:33:06Z</time>
</trkpt>
<trkpt lat="46.414410000" lon="-70.990400000">
<ele>0</ele>
<time>2026-09-04T06:33:07Z</time>
</trkpt>
<trkpt lat="46.414790000" lon="-70.990900000">
<ele>0</ele>
<time>2026-09-04T06:33:08Z</time>
</trkpt>
<trkpt lat="46.415110000" lon="-70.991280000">
<ele>0</ele>
<time>2026-09-04T06:33:09Z</time>
</trkpt>
<trkpt lat="46.415930000" lon="-70.992160000">
<ele>0</ele>
<time>2026-09-04T06:33:10Z</time>
</trkpt>
<trkpt lat="46.417990000" lon="-70.994310000">
<ele>0</ele>
<time>2026-09-04T06:33:11Z</time>
</trkpt>
<trkpt lat="46.420010000" lon="-70.996440000">
<ele>0</ele>
<time>2026-09-04T06:33:12Z</time>
</trkpt>
<trkpt lat="46.421750000" lon="-70.998240000">
<ele>0</ele>
<time>2026-09-04T06:33:13Z</time>
</trkpt>
<trkpt lat="46.421860000" lon="-70.998370000">
<ele>0</ele>
<time>2026-09-04T06:33:14Z</time>
</trkpt>
<trkpt lat="46.422010000" lon="-70.998580000">
<ele>0</ele>
<time>2026-09-04T06:33:15Z</time>
</trkpt>
<trkpt lat="46.422140000" lon="-70.998820000">
<ele>0</ele>
<time>2026-09-04T06:33:16Z</time>
</trkpt>
<trkpt lat="46.422980000" lon="-70.999820000">
<ele>0</ele>
<time>2026-09-04T06:33:17Z</time>
</trkpt>
<trkpt lat="46.424020000" lon="-71.001230000">
<ele>0</ele>
<time>2026-09-04T06:33:18Z</time>
</trkpt>
<trkpt lat="46.425320000" lon="-71.003010000">
<ele>0</ele>
<time>2026-09-04T06:33:19Z</time>
</trkpt>
<trkpt lat="46.426000000" lon="-71.003900000">
<ele>0</ele>
<time>2026-09-04T06:33:20Z</time>
</trkpt>
<trkpt lat="46.426300000" lon="-71.004310000">
<ele>0</ele>
<time>2026-09-04T06:33:21Z</time>
</trkpt>
<trkpt lat="46.427020000" lon="-71.005370000">
<ele>0</ele>
<time>2026-09-04T06:33:22Z</time>
</trkpt>
<trkpt lat="46.427250000" lon="-71.005720000">
<ele>0</ele>
<time>2026-09-04T06:33:23Z</time>
</trkpt>
<trkpt lat="46.428430000" lon="-71.007360000">
<ele>0</ele>
<time>2026-09-04T06:33:24Z</time>
</trkpt>
<trkpt lat="46.429370000" lon="-71.008590000">
<ele>0</ele>
<time>2026-09-04T06:33:25Z</time>
</trkpt>
<trkpt lat="46.430030000" lon="-71.009470000">
<ele>0</ele>
<time>2026-09-04T06:33:26Z</time>
</trkpt>
<trkpt lat="46.430940000" lon="-71.010740000">
<ele>0</ele>
<time>2026-09-04T06:33:27Z</time>
</trkpt>
<trkpt lat="46.432490000" lon="-71.012880000">
<ele>0</ele>
<time>2026-09-04T06:33:28Z</time>
</trkpt>
<trkpt lat="46.433380000" lon="-71.014080000">
<ele>0</ele>
<time>2026-09-04T06:33:29Z</time>
</trkpt>
<trkpt lat="46.434070000" lon="-71.015010000">
<ele>0</ele>
<time>2026-09-04T06:33:30Z</time>
</trkpt>
<trkpt lat="46.435380000" lon="-71.016490000">
<ele>0</ele>
<time>2026-09-04T06:33:31Z</time>
</trkpt>
<trkpt lat="46.435960000" lon="-71.017100000">
<ele>0</ele>
<time>2026-09-04T06:33:32Z</time>
</trkpt>
<trkpt lat="46.436980000" lon="-71.018170000">
<ele>0</ele>
<time>2026-09-04T06:33:33Z</time>
</trkpt>
<trkpt lat="46.438270000" lon="-71.019510000">
<ele>0</ele>
<time>2026-09-04T06:33:34Z</time>
</trkpt>
<trkpt lat="46.439080000" lon="-71.020370000">
<ele>0</ele>
<time>2026-09-04T06:33:35Z</time>
</trkpt>
<trkpt lat="46.439090000" lon="-71.020410000">
<ele>0</ele>
<time>2026-09-04T06:33:36Z</time>
</trkpt>
<trkpt lat="46.439060000" lon="-71.020550000">
<ele>0</ele>
<time>2026-09-04T06:33:37Z</time>
</trkpt>
<trkpt lat="46.439170000" lon="-71.020700000">
<ele>0</ele>
<time>2026-09-04T06:33:38Z</time>
</trkpt>
<trkpt lat="46.440040000" lon="-71.021720000">
<ele>0</ele>
<time>2026-09-04T06:33:39Z</time>
</trkpt>
<trkpt lat="46.440420000" lon="-71.022140000">
<ele>0</ele>
<time>2026-09-04T06:33:40Z</time>
</trkpt>
<trkpt lat="46.440650000" lon="-71.022400000">
<ele>0</ele>
<time>2026-09-04T06:33:41Z</time>
</trkpt>
<trkpt lat="46.440830000" lon="-71.022470000">
<ele>0</ele>
<time>2026-09-04T06:33:42Z</time>
</trkpt>
<trkpt lat="46.441320000" lon="-71.022980000">
<ele>0</ele>
<time>2026-09-04T06:33:43Z</time>
</trkpt>
<trkpt lat="46.442020000" lon="-71.023700000">
<ele>0</ele>
<time>2026-09-04T06:33:44Z</time>
</trkpt>
<trkpt lat="46.442700000" lon="-71.024430000">
<ele>0</ele>
<time>2026-09-04T06:33:45Z</time>
</trkpt>
<trkpt lat="46.444060000" lon="-71.025880000">
<ele>0</ele>
<time>2026-09-04T06:33:46Z</time>
</trkpt>
<trkpt lat="46.445350000" lon="-71.027260000">
<ele>0</ele>
<time>2026-09-04T06:33:47Z</time>
</trkpt>
<trkpt lat="46.447600000" lon="-71.029640000">
<ele>0</ele>
<time>2026-09-04T06:33:48Z</time>
</trkpt>
<trkpt lat="46.452600000" lon="-71.034910000">
<ele>0</ele>
<time>2026-09-04T06:33:49Z</time>
</trkpt>
<trkpt lat="46.453630000" lon="-71.036070000">
<ele>0</ele>
<time>2026-09-04T06:33:50Z</time>
</trkpt>
<trkpt lat="46.454200000" lon="-71.036710000">
<ele>0</ele>
<time>2026-09-04T06:33:51Z</time>
</trkpt>
<trkpt lat="46.454250000" lon="-71.036760000">
<ele>0</ele>
<time>2026-09-04T06:33:52Z</time>
</trkpt>
<trkpt lat="46.454280000" lon="-71.036700000">
<ele>0</ele>
<time>2026-09-04T06:33:53Z</time>
</trkpt>
<trkpt lat="46.454280000" lon="-71.036700000">
<ele>0</ele>
<time>2026-09-04T06:33:54Z</time>
</trkpt>
<trkpt lat="46.454360000" lon="-71.036560000">
<ele>0</ele>
<time>2026-09-04T06:33:55Z</time>
</trkpt>
<trkpt lat="46.454380000" lon="-71.036540000">
<ele>0</ele>
<time>2026-09-04T06:33:56Z</time>
</trkpt>
<trkpt lat="46.454430000" lon="-71.036580000">
<ele>0</ele>
<time>2026-09-04T06:33:57Z</time>
</trkpt>
<trkpt lat="46.454430000" lon="-71.036580000">
<ele>0</ele>
<time>2026-09-04T06:33:58Z</time>
</trkpt>
<trkpt lat="46.456110000" lon="-71.038440000">
<ele>0</ele>
<time>2026-09-04T06:33:59Z</time>
</trkpt>
<trkpt lat="46.456760000" lon="-71.039120000">
<ele>0</ele>
<time>2026-09-04T06:34:00Z</time>
</trkpt>
<trkpt lat="46.457160000" lon="-71.039450000">
<ele>0</ele>
<time>2026-09-04T06:34:01Z</time>
</trkpt>
<trkpt lat="46.457470000" lon="-71.039700000">
<ele>0</ele>
<time>2026-09-04T06:34:02Z</time>
</trkpt>
<trkpt lat="46.457920000" lon="-71.039980000">
<ele>0</ele>
<time>2026-09-04T06:34:03Z</time>
</trkpt>
<trkpt lat="46.458480000" lon="-71.040260000">
<ele>0</ele>
<time>2026-09-04T06:34:04Z</time>
</trkpt>
<trkpt lat="46.460340000" lon="-71.041220000">
<ele>0</ele>
<time>2026-09-04T06:34:05Z</time>
</trkpt>
<trkpt lat="46.463050000" lon="-71.042640000">
<ele>0</ele>
<time>2026-09-04T06:34:06Z</time>
</trkpt>
<trkpt lat="46.464740000" lon="-71.043520000">
<ele>0</ele>
<time>2026-09-04T06:34:07Z</time>
</trkpt>
<trkpt lat="46.465210000" lon="-71.043680000">
<ele>0</ele>
<time>2026-09-04T06:34:08Z</time>
</trkpt>
<trkpt lat="46.465320000" lon="-71.043800000">
<ele>0</ele>
<time>2026-09-04T06:34:09Z</time>
</trkpt>
<trkpt lat="46.465480000" lon="-71.043900000">
<ele>0</ele>
<time>2026-09-04T06:34:10Z</time>
</trkpt>
<trkpt lat="46.466480000" lon="-71.044410000">
<ele>0</ele>
<time>2026-09-04T06:34:11Z</time>
</trkpt>
<trkpt lat="46.466660000" lon="-71.044450000">
<ele>0</ele>
<time>2026-09-04T06:34:12Z</time>
</trkpt>
<trkpt lat="46.469300000" lon="-71.045840000">
<ele>0</ele>
<time>2026-09-04T06:34:13Z</time>
</trkpt>
<trkpt lat="46.469680000" lon="-71.046050000">
<ele>0</ele>
<time>2026-09-04T06:34:14Z</time>
</trkpt>
<trkpt lat="46.469830000" lon="-71.046050000">
<ele>0</ele>
<time>2026-09-04T06:34:15Z</time>
</trkpt>
<trkpt lat="46.470000000" lon="-71.046010000">
<ele>0</ele>
<time>2026-09-04T06:34:16Z</time>
</trkpt>
<trkpt lat="46.470340000" lon="-71.046200000">
<ele>0</ele>
<time>2026-09-04T06:34:17Z</time>
</trkpt>
<trkpt lat="46.471180000" lon="-71.046660000">
<ele>0</ele>
<time>2026-09-04T06:34:18Z</time>
</trkpt>
<trkpt lat="46.472190000" lon="-71.047210000">
<ele>0</ele>
<time>2026-09-04T06:34:19Z</time>
</trkpt>
<trkpt lat="46.473060000" lon="-71.047650000">
<ele>0</ele>
<time>2026-09-04T06:34:20Z</time>
</trkpt>
<trkpt lat="46.473080000" lon="-71.047810000">
<ele>0</ele>
<time>2026-09-04T06:34:21Z</time>
</trkpt>
<trkpt lat="46.473040000" lon="-71.048010000">
<ele>0</ele>
<time>2026-09-04T06:34:22Z</time>
</trkpt>
<trkpt lat="46.473060000" lon="-71.048070000">
<ele>0</ele>
<time>2026-09-04T06:34:23Z</time>
</trkpt>
<trkpt lat="46.473170000" lon="-71.048130000">
<ele>0</ele>
<time>2026-09-04T06:34:24Z</time>
</trkpt>
<trkpt lat="46.473170000" lon="-71.048130000">
<ele>0</ele>
<time>2026-09-04T06:34:25Z</time>
</trkpt>
<trkpt lat="46.475600000" lon="-71.049440000">
<ele>0</ele>
<time>2026-09-04T06:34:26Z</time>
</trkpt>
<trkpt lat="46.476680000" lon="-71.050270000">
<ele>0</ele>
<time>2026-09-04T06:34:27Z</time>
</trkpt>
<trkpt lat="46.478310000" lon="-71.051670000">
<ele>0</ele>
<time>2026-09-04T06:34:28Z</time>
</trkpt>
<trkpt lat="46.479850000" lon="-71.053020000">
<ele>0</ele>
<time>2026-09-04T06:34:29Z</time>
</trkpt>
<trkpt lat="46.480600000" lon="-71.053720000">
<ele>0</ele>
<time>2026-09-04T06:34:30Z</time>
</trkpt>
<trkpt lat="46.481170000" lon="-71.054370000">
<ele>0</ele>
<time>2026-09-04T06:34:31Z</time>
</trkpt>
<trkpt lat="46.481300000" lon="-71.054530000">
<ele>0</ele>
<time>2026-09-04T06:34:32Z</time>
</trkpt>
<trkpt lat="46.481560000" lon="-71.054910000">
<ele>0</ele>
<time>2026-09-04T06:34:33Z</time>
</trkpt>
<trkpt lat="46.482430000" lon="-71.056240000">
<ele>0</ele>
<time>2026-09-04T06:34:34Z</time>
</trkpt>
<trkpt lat="46.483440000" lon="-71.057780000">
<ele>0</ele>
<time>2026-09-04T06:34:35Z</time>
</trkpt>
<trkpt lat="46.484020000" lon="-71.058720000">
<ele>0</ele>
<time>2026-09-04T06:34:36Z</time>
</trkpt>
<trkpt lat="46.484850000" lon="-71.060100000">
<ele>0</ele>
<time>2026-09-04T06:34:37Z</time>
</trkpt>
<trkpt lat="46.485440000" lon="-71.061070000">
<ele>0</ele>
<time>2026-09-04T06:34:38Z</time>
</trkpt>
<trkpt lat="46.486300000" lon="-71.062420000">
<ele>0</ele>
<time>2026-09-04T06:34:39Z</time>
</trkpt>
<trkpt lat="46.487150000" lon="-71.063740000">
<ele>0</ele>
<time>2026-09-04T06:34:40Z</time>
</trkpt>
<trkpt lat="46.487660000" lon="-71.064540000">
<ele>0</ele>
<time>2026-09-04T06:34:41Z</time>
</trkpt>
<trkpt lat="46.488030000" lon="-71.065200000">
<ele>0</ele>
<time>2026-09-04T06:34:42Z</time>
</trkpt>
<trkpt lat="46.488310000" lon="-71.065730000">
<ele>0</ele>
<time>2026-09-04T06:34:43Z</time>
</trkpt>
<trkpt lat="46.488830000" lon="-71.066810000">
<ele>0</ele>
<time>2026-09-04T06:34:44Z</time>
</trkpt>
<trkpt lat="46.489060000" lon="-71.067270000">
<ele>0</ele>
<time>2026-09-04T06:34:45Z</time>
</trkpt>
<trkpt lat="46.489170000" lon="-71.067400000">
<ele>0</ele>
<time>2026-09-04T06:34:46Z</time>
</trkpt>
<trkpt lat="46.489730000" lon="-71.068070000">
<ele>0</ele>
<time>2026-09-04T06:34:47Z</time>
</trkpt>
<trkpt lat="46.490230000" lon="-71.068360000">
<ele>0</ele>
<time>2026-09-04T06:34:48Z</time>
</trkpt>
<trkpt lat="46.490480000" lon="-71.068500000">
<ele>0</ele>
<time>2026-09-04T06:34:49Z</time>
</trkpt>
<trkpt lat="46.490570000" lon="-71.068510000">
<ele>0</ele>
<time>2026-09-04T06:34:50Z</time>
</trkpt>
<trkpt lat="46.490890000" lon="-71.068570000">
<ele>0</ele>
<time>2026-09-04T06:34:51Z</time>
</trkpt>
<trkpt lat="46.491440000" lon="-71.068560000">
<ele>0</ele>
<time>2026-09-04T06:34:52Z</time>
</trkpt>
<trkpt lat="46.492010000" lon="-71.068430000">
<ele>0</ele>
<time>2026-09-04T06:34:53Z</time>
</trkpt>
<trkpt lat="46.494390000" lon="-71.067980000">
<ele>0</ele>
<time>2026-09-04T06:34:54Z</time>
</trkpt>
<trkpt lat="46.496470000" lon="-71.067540000">
<ele>0</ele>
<time>2026-09-04T06:34:55Z</time>
</trkpt>
<trkpt lat="46.497010000" lon="-71.067460000">
<ele>0</ele>
<time>2026-09-04T06:34:56Z</time>
</trkpt>
<trkpt lat="46.497350000" lon="-71.067440000">
<ele>0</ele>
<time>2026-09-04T06:34:57Z</time>
</trkpt>
<trkpt lat="46.497500000" lon="-71.067450000">
<ele>0</ele>
<time>2026-09-04T06:34:58Z</time>
</trkpt>
<trkpt lat="46.498080000" lon="-71.067560000">
<ele>0</ele>
<time>2026-09-04T06:34:59Z</time>
</trkpt>
<trkpt lat="46.499430000" lon="-71.067890000">
<ele>0</ele>
<time>2026-09-04T06:35:00Z</time>
</trkpt>
<trkpt lat="46.500420000" lon="-71.068110000">
<ele>0</ele>
<time>2026-09-04T06:35:01Z</time>
</trkpt>
<trkpt lat="46.501490000" lon="-71.068360000">
<ele>0</ele>
<time>2026-09-04T06:35:02Z</time>
</trkpt>
<trkpt lat="46.502200000" lon="-71.068520000">
<ele>0</ele>
<time>2026-09-04T06:35:03Z</time>
</trkpt>
<trkpt lat="46.502550000" lon="-71.068630000">
<ele>0</ele>
<time>2026-09-04T06:35:04Z</time>
</trkpt>
<trkpt lat="46.503570000" lon="-71.068830000">
<ele>0</ele>
<time>2026-09-04T06:35:05Z</time>
</trkpt>
<trkpt lat="46.504280000" lon="-71.068940000">
<ele>0</ele>
<time>2026-09-04T06:35:06Z</time>
</trkpt>
<trkpt lat="46.504310000" lon="-71.068970000">
<ele>0</ele>
<time>2026-09-04T06:35:07Z</time>
</trkpt>
<trkpt lat="46.504330000" lon="-71.069040000">
<ele>0</ele>
<time>2026-09-04T06:35:08Z</time>
</trkpt>
<trkpt lat="46.504370000" lon="-71.069210000">
<ele>0</ele>
<time>2026-09-04T06:35:09Z</time>
</trkpt>
<trkpt lat="46.504410000" lon="-71.069270000">
<ele>0</ele>
<time>2026-09-04T06:35:10Z</time>
</trkpt>
<trkpt lat="46.504360000" lon="-71.069350000">
<ele>0</ele>
<time>2026-09-04T06:35:11Z</time>
</trkpt>
<trkpt lat="46.504360000" lon="-71.069350000">
<ele>0</ele>
<time>2026-09-04T06:35:12Z</time>
</trkpt>
<trkpt lat="46.503980000" lon="-71.069890000">
<ele>0</ele>
<time>2026-09-04T06:35:13Z</time>
</trkpt>
<trkpt lat="46.503540000" lon="-71.070580000">
<ele>0</ele>
<time>2026-09-04T06:35:14Z</time>
</trkpt>
<trkpt lat="46.503400000" lon="-71.070880000">
<ele>0</ele>
<time>2026-09-04T06:35:15Z</time>
</trkpt>
<trkpt lat="46.503470000" lon="-71.070940000">
<ele>0</ele>
<time>2026-09-04T06:35:16Z</time>
</trkpt>
<trkpt lat="46.503470000" lon="-71.070940000">
<ele>0</ele>
<time>2026-09-04T06:35:17Z</time>
</trkpt>
<trkpt lat="46.503820000" lon="-71.071210000">
<ele>0</ele>
<time>2026-09-04T06:35:18Z</time>
</trkpt>
<trkpt lat="46.504130000" lon="-71.071440000">
<ele>0</ele>
<time>2026-09-04T06:35:19Z</time>
</trkpt>
<trkpt lat="46.504060000" lon="-71.071550000">
<ele>0</ele>
<time>2026-09-04T06:35:20Z</time>
</trkpt>
<trkpt lat="46.504060000" lon="-71.071550000">
<ele>0</ele>
<time>2026-09-04T06:35:21Z</time>
</trkpt>
<trkpt lat="46.502550000" lon="-71.073940000">
<ele>0</ele>
<time>2026-09-04T06:35:22Z</time>
</trkpt>
<trkpt lat="46.502240000" lon="-71.074320000">
<ele>0</ele>
<time>2026-09-04T06:35:23Z</time>
</trkpt>
<trkpt lat="46.501820000" lon="-71.074670000">
<ele>0</ele>
<time>2026-09-04T06:35:24Z</time>
</trkpt>
<trkpt lat="46.501310000" lon="-71.074970000">
<ele>0</ele>
<time>2026-09-04T06:35:25Z</time>
</trkpt>
<trkpt lat="46.500300000" lon="-71.075520000">
<ele>0</ele>
<time>2026-09-04T06:35:26Z</time>
</trkpt>
<trkpt lat="46.499500000" lon="-71.076020000">
<ele>0</ele>
<time>2026-09-04T06:35:27Z</time>
</trkpt>
<trkpt lat="46.499140000" lon="-71.076330000">
<ele>0</ele>
<time>2026-09-04T06:35:28Z</time>
</trkpt>
<trkpt lat="46.499020000" lon="-71.076450000">
<ele>0</ele>
<time>2026-09-04T06:35:29Z</time>
</trkpt>
<trkpt lat="46.499020000" lon="-71.076450000">
<ele>0</ele>
<time>2026-09-04T06:35:30Z</time>
</trkpt>
<trkpt lat="46.498650000" lon="-71.076890000">
<ele>0</ele>
<time>2026-09-04T06:35:31Z</time>
</trkpt>
<trkpt lat="46.498380000" lon="-71.077320000">
<ele>0</ele>
<time>2026-09-04T06:35:32Z</time>
</trkpt>
<trkpt lat="46.498220000" lon="-71.077600000">
<ele>0</ele>
<time>2026-09-04T06:35:33Z</time>
</trkpt>
<trkpt lat="46.497930000" lon="-71.078230000">
<ele>0</ele>
<time>2026-09-04T06:35:34Z</time>
</trkpt>
<trkpt lat="46.497660000" lon="-71.078940000">
<ele>0</ele>
<time>2026-09-04T06:35:35Z</time>
</trkpt>
<trkpt lat="46.497480000" lon="-71.079520000">
<ele>0</ele>
<time>2026-09-04T06:35:36Z</time>
</trkpt>
<trkpt lat="46.497470000" lon="-71.079690000">
<ele>0</ele>
<time>2026-09-04T06:35:37Z</time>
</trkpt>
<trkpt lat="46.497470000" lon="-71.079690000">
<ele>0</ele>
<time>2026-09-04T06:35:38Z</time>
</trkpt>
<trkpt lat="46.497140000" lon="-71.084800000">
<ele>0</ele>
<time>2026-09-04T06:35:39Z</time>
</trkpt>
<trkpt lat="46.497140000" lon="-71.085280000">
<ele>0</ele>
<time>2026-09-04T06:35:40Z</time>
</trkpt>
<trkpt lat="46.497180000" lon="-71.085760000">
<ele>0</ele>
<time>2026-09-04T06:35:41Z</time>
</trkpt>
<trkpt lat="46.497260000" lon="-71.086220000">
<ele>0</ele>
<time>2026-09-04T06:35:42Z</time>
</trkpt>
<trkpt lat="46.497400000" lon="-71.086770000">
<ele>0</ele>
<time>2026-09-04T06:35:43Z</time>
</trkpt>
<trkpt lat="46.497960000" lon="-71.088440000">
<ele>0</ele>
<time>2026-09-04T06:35:44Z</time>
</trkpt>
<trkpt lat="46.498120000" lon="-71.088910000">
<ele>0</ele>
<time>2026-09-04T06:35:45Z</time>
</trkpt>
<trkpt lat="46.498420000" lon="-71.089810000">
<ele>0</ele>
<time>2026-09-04T06:35:46Z</time>
</trkpt>
<trkpt lat="46.498640000" lon="-71.090590000">
<ele>0</ele>
<time>2026-09-04T06:35:47Z</time>
</trkpt>
<trkpt lat="46.499040000" lon="-71.092010000">
<ele>0</ele>
<time>2026-09-04T06:35:48Z</time>
</trkpt>
<trkpt lat="46.499290000" lon="-71.093000000">
<ele>0</ele>
<time>2026-09-04T06:35:49Z</time>
</trkpt>
<trkpt lat="46.499540000" lon="-71.094220000">
<ele>0</ele>
<time>2026-09-04T06:35:50Z</time>
</trkpt>
<trkpt lat="46.499810000" lon="-71.096040000">
<ele>0</ele>
<time>2026-09-04T06:35:51Z</time>
</trkpt>
<trkpt lat="46.500040000" lon="-71.097370000">
<ele>0</ele>
<time>2026-09-04T06:35:52Z</time>
</trkpt>
<trkpt lat="46.500230000" lon="-71.098260000">
<ele>0</ele>
<time>2026-09-04T06:35:53Z</time>
</trkpt>
<trkpt lat="46.500500000" lon="-71.099240000">
<ele>0</ele>
<time>2026-09-04T06:35:54Z</time>
</trkpt>
<trkpt lat="46.500560000" lon="-71.099420000">
<ele>0</ele>
<time>2026-09-04T06:35:55Z</time>
</trkpt>
<trkpt lat="46.500850000" lon="-71.100180000">
<ele>0</ele>
<time>2026-09-04T06:35:56Z</time>
</trkpt>
<trkpt lat="46.501150000" lon="-71.100880000">
<ele>0</ele>
<time>2026-09-04T06:35:57Z</time>
</trkpt>
<trkpt lat="46.501580000" lon="-71.101680000">
<ele>0</ele>
<time>2026-09-04T06:35:58Z</time>
</trkpt>
<trkpt lat="46.501920000" lon="-71.102250000">
<ele>0</ele>
<time>2026-09-04T06:35:59Z</time>
</trkpt>
<trkpt lat="46.503160000" lon="-71.103960000">
<ele>0</ele>
<time>2026-09-04T06:36:00Z</time>
</trkpt>
<trkpt lat="46.504740000" lon="-71.106100000">
<ele>0</ele>
<time>2026-09-04T06:36:01Z</time>
</trkpt>
<trkpt lat="46.505960000" lon="-71.107740000">
<ele>0</ele>
<time>2026-09-04T06:36:02Z</time>
</trkpt>
<trkpt lat="46.506960000" lon="-71.109090000">
<ele>0</ele>
<time>2026-09-04T06:36:03Z</time>
</trkpt>
<trkpt lat="46.507250000" lon="-71.109420000">
<ele>0</ele>
<time>2026-09-04T06:36:04Z</time>
</trkpt>
<trkpt lat="46.508130000" lon="-71.110280000">
<ele>0</ele>
<time>2026-09-04T06:36:05Z</time>
</trkpt>
<trkpt lat="46.509090000" lon="-71.111220000">
<ele>0</ele>
<time>2026-09-04T06:36:06Z</time>
</trkpt>
<trkpt lat="46.509500000" lon="-71.111660000">
<ele>0</ele>
<time>2026-09-04T06:36:07Z</time>
</trkpt>
<trkpt lat="46.510180000" lon="-71.112500000">
<ele>0</ele>
<time>2026-09-04T06:36:08Z</time>
</trkpt>
<trkpt lat="46.511250000" lon="-71.114030000">
<ele>0</ele>
<time>2026-09-04T06:36:09Z</time>
</trkpt>
<trkpt lat="46.513680000" lon="-71.117520000">
<ele>0</ele>
<time>2026-09-04T06:36:10Z</time>
</trkpt>
<trkpt lat="46.514620000" lon="-71.118730000">
<ele>0</ele>
<time>2026-09-04T06:36:11Z</time>
</trkpt>
<trkpt lat="46.515300000" lon="-71.119620000">
<ele>0</ele>
<time>2026-09-04T06:36:12Z</time>
</trkpt>
<trkpt lat="46.515560000" lon="-71.119980000">
<ele>0</ele>
<time>2026-09-04T06:36:13Z</time>
</trkpt>
<trkpt lat="46.516760000" lon="-71.121560000">
<ele>0</ele>
<time>2026-09-04T06:36:14Z</time>
</trkpt>
<trkpt lat="46.519370000" lon="-71.125010000">
<ele>0</ele>
<time>2026-09-04T06:36:15Z</time>
</trkpt>
</trkseg>
</trk>
</gpx>
